BA1484 / G-EUYS 7700 Squawk Report (18th of July, 2021)

Aircraft A320 Reg No. G-EUYS Age 7 years old
Model A320 Jet engines 2 First flight 19-12-13
Registered 30-01-14 Rollout 12-13 Delivered 30-01-14
Construction No. 5948 Line No. N/A Series 232(SL)
ADSHEX 406A02 Airline name British Airways Owner N/A
Airfield based Heathrow~Gtr London~G First tracked N/A

Flight history for G-EUYS

Route Flight No Date Playback
Aktion National Airport (PVK) - Heathrow (LHR) BA681 2021-07-31 20:51:00
Heathrow (LHR) - Aktion National Airport (PVK) BA674 2021-07-31 14:52:00
Edinburgh (EDI) - Heathrow (LHR) BA1439 2021-07-31 08:49:00
Heathrow (LHR) - Edinburgh (EDI) BA1458 2021-07-30 19:07:00
Santorini (JTR) - Heathrow (LHR) BA653 2021-07-30 17:57:00
Heathrow (LHR) - Santorini (JTR) BA652 2021-07-30 11:44:00
Luqa (MLA) - Heathrow (LHR) BA2647 2021-07-30 07:29:00
Heathrow (LHR) - Luqa (MLA) BA2646 2021-07-29 17:18:00
Barajas (MAD) - Heathrow (LHR) BA459 2021-07-29 13:17:00
Heathrow (LHR) - Barajas (MAD) BA458 2021-07-29 08:40:00
Arlanda (ARN) - Heathrow (LHR) BA771 2021-07-28 12:45:00
Heathrow (LHR) - Arlanda (ARN) BA786 2021-07-27 18:51:00
Copenhagen Airport (CPH) - Heathrow (LHR) BA815 2021-07-27 13:34:00
Heathrow (LHR) - Copenhagen Airport (CPH) BA814 2021-07-27 11:55:00
Copenhagen Airport (CPH) - Heathrow (LHR) BA815 2021-07-27 01:18:00
Heathrow (LHR) - Copenhagen Airport (CPH) BA814 2021-07-26 11:47:00
Aktion National Airport (PVK) - Heathrow (LHR) BA681 2021-07-25 18:05:00
Heathrow (LHR) - Aktion National Airport (PVK) BA674 2021-07-25 14:48:00
Aktion National Airport (PVK) - Heathrow (LHR) BA681 2021-07-24 19:19:00
Heathrow (LHR) - Aktion National Airport (PVK) BA674 2021-07-24 16:05:00
Time Lat Lon Altitude Heading Speed Vertical Rate
2021-07-18 13:22:07 GMT 55.867634 -4.435472 0 73 15 0
2021-07-18 13:21:46 GMT 55.867271 -4.437683 0 56 13 0
2021-07-18 13:21:41 GMT 55.867096 -4.438133 0 47 14 0
2021-07-18 13:21:32 GMT 55.866699 -4.438841 0 45 13 0
2021-07-18 13:21:22 GMT 55.866314 -4.439559 0 61 11 0
2021-07-18 13:21:13 GMT 55.866177 -4.440349 0 87 11 0
2021-07-18 13:21:02 GMT 55.866177 -4.441352 0 90 12 0
2021-07-18 13:20:52 GMT 55.866165 -4.442222 0 106 12 0
2021-07-18 13:20:40 GMT 55.866611 -4.442971 0 191 13 0
2021-07-18 13:20:32 GMT 55.867096 -4.442511 0 225 24 0
2021-07-18 13:20:22 GMT 55.868340 -4.440129 0 227 68 0
2021-07-18 13:19:58 GMT 55.877426 -4.423246 -300 227 137 -192
2021-07-18 13:19:52 GMT 55.879807 -4.418668 -225 227 133 -704
2021-07-18 13:19:41 GMT 55.884613 -4.409762 -100 227 131 -768
2021-07-18 13:19:38 GMT 55.885895 -4.407349 -50 227 132 -768
2021-07-18 13:19:37 GMT 55.886333 -4.406548 -50 227 132 -768
2021-07-18 13:19:32 GMT 55.888336 -4.402771 50 227 133 -768
2021-07-18 13:19:29 GMT 55.890198 -4.399192 75 227 132 -704
2021-07-18 13:19:26 GMT 55.890884 -4.398027 75 227 132 -704
2021-07-18 13:19:24 GMT 55.891571 -4.396695 100 227 132 -576
2021-07-18 13:19:23 GMT 55.892166 -4.395530 125 227 132 -704
2021-07-18 13:19:21 GMT 55.893177 -4.393673 150 227 132 -704
2021-07-18 13:19:20 GMT 55.893597 -4.392900 150 227 132 -640
2021-07-18 13:19:19 GMT 55.893967 -4.392214 175 227 132 -640
2021-07-18 13:19:16 GMT 55.895271 -4.389811 200 227 131 -704
2021-07-18 13:19:15 GMT 55.895691 -4.388955 200 227 131 -640
2021-07-18 13:19:14 GMT 55.896149 -4.388123 225 227 130 -704
2021-07-18 13:19:13 GMT 55.896378 -4.387706 225 227 130 -704
2021-07-18 13:19:10 GMT 55.897411 -4.385777 250 227 130 -704
2021-07-18 13:19:09 GMT 55.898071 -4.384544 275 227 130 -704
2021-07-18 13:19:08 GMT 55.898483 -4.383795 275 227 130 -768
2021-07-18 13:19:07 GMT 55.898857 -4.383030 300 227 130 -704
2021-07-18 13:19:04 GMT 55.900299 -4.380283 325 227 132 -704
2021-07-18 13:19:02 GMT 55.900951 -4.379082 350 227 132 -896
2021-07-18 13:19:01 GMT 55.901413 -4.378218 375 227 132 -960
2021-07-18 13:19:00 GMT 55.902206 -4.376764 400 227 131 -832
2021-07-18 13:18:58 GMT 55.902721 -4.375820 425 226 132 -576
2021-07-18 13:18:56 GMT 55.903511 -4.374361 450 227 131 -640
2021-07-18 13:18:54 GMT 55.904488 -4.372473 475 227 130 -704
2021-07-18 13:18:53 GMT 55.904892 -4.371726 475 227 130 -768
2021-07-18 13:18:52 GMT 55.905792 -4.370070 500 227 130 -768
2021-07-18 13:18:50 GMT 55.906036 -4.369646 500 227 130 -704
2021-07-18 13:18:48 GMT 55.906906 -4.367981 525 227 130 -640
2021-07-18 13:18:46 GMT 55.907776 -4.366316 550 227 130 -640
2021-07-18 13:18:45 GMT 55.908188 -4.365567 575 227 131 -640
2021-07-18 13:18:44 GMT 55.908630 -4.364834 575 227 131 -640
2021-07-18 13:18:43 GMT 55.909515 -4.363031 600 227 131 -768
2021-07-18 13:18:41 GMT 55.909935 -4.362259 625 227 131 -704
2021-07-18 13:18:39 GMT 55.910797 -4.360740 650 227 131 -512
2021-07-18 13:18:37 GMT 55.911659 -4.359169 650 227 130 -448
2021-07-18 13:18:36 GMT 55.912029 -4.358397 675 227 130 -576
2021-07-18 13:18:35 GMT 55.912903 -4.356828 675 227 130 -704
2021-07-18 13:18:33 GMT 55.913315 -4.355996 700 227 131 -576
2021-07-18 13:18:32 GMT 55.913567 -4.355478 700 227 131 -576
2021-07-18 13:18:31 GMT 55.914047 -4.354664 725 227 131 -576
2021-07-18 13:18:29 GMT 55.914963 -4.352818 750 227 132 -640
2021-07-18 13:18:28 GMT 55.915833 -4.351169 750 227 132 -640
2021-07-18 13:18:25 GMT 55.916519 -4.349920 775 227 132 -640
2021-07-18 13:18:24 GMT 55.916977 -4.349088 800 227 131 -640
2021-07-18 13:18:23 GMT 55.917389 -4.348256 800 227 132 -512
2021-07-18 13:18:21 GMT 55.918259 -4.346674 825 227 132 -512
2021-07-18 13:18:20 GMT 55.918736 -4.345779 825 227 132 -576
2021-07-18 13:18:18 GMT 55.919495 -4.344344 850 227 132 -704
2021-07-18 13:18:17 GMT 55.919952 -4.343511 875 227 133 -704
2021-07-18 13:18:15 GMT 55.920734 -4.342003 900 227 134 -640
2021-07-18 13:18:14 GMT 55.921692 -4.340265 925 227 134 -704
2021-07-18 13:18:12 GMT 55.922085 -4.339514 925 227 135 -704
2021-07-18 13:18:09 GMT 55.923889 -4.336187 975 227 137 -640
2021-07-18 13:18:07 GMT 55.925114 -4.333849 1,000 227 138 -832
2021-07-18 13:18:05 GMT 55.925114 -4.333849 1,000 227 138 -768
2021-07-18 13:18:03 GMT 55.925949 -4.332275 1,025 227 140 -768
2021-07-18 13:18:02 GMT 55.926453 -4.331360 1,050 227 140 -832
2021-07-18 13:18:01 GMT 55.926865 -4.330528 1,050 227 142 -832
2021-07-18 13:17:59 GMT 55.927952 -4.328527 1,100 227 144 -896
2021-07-18 13:17:57 GMT 55.929348 -4.325867 1,150 227 145 -960
2021-07-18 13:17:54 GMT 55.930233 -4.324236 1,175 227 148 -960
2021-07-18 13:17:53 GMT 55.930698 -4.323292 1,200 227 148 -896
2021-07-18 13:17:49 GMT 55.932186 -4.320545 1,225 227 151 -704
2021-07-18 13:17:47 GMT 55.933121 -4.318743 1,275 227 152 -768
2021-07-18 13:17:46 GMT 55.934052 -4.317026 1,300 227 153 -832
2021-07-18 13:17:44 GMT 55.934517 -4.316082 1,300 227 154 -768
2021-07-18 13:17:42 GMT 55.935585 -4.314108 1,325 227 155 -832
2021-07-18 13:17:41 GMT 55.936020 -4.313216 1,350 227 156 -832
2021-07-18 13:17:40 GMT 55.936935 -4.311468 1,375 227 159 -768
2021-07-18 13:17:38 GMT 55.937485 -4.310552 1,375 227 162 -704
2021-07-18 13:17:37 GMT 55.939030 -4.307585 1,400 227 164 -640
2021-07-18 13:17:35 GMT 55.939030 -4.307585 1,400 227 167 -576
2021-07-18 13:17:32 GMT 55.940475 -4.304838 1,425 227 169 -640
2021-07-18 13:17:31 GMT 55.940781 -4.304310 1,425 227 171 -832
2021-07-18 13:17:30 GMT 55.941559 -4.302729 1,450 227 174 -896
2021-07-18 13:17:29 GMT 55.942150 -4.301662 1,475 227 175 -960
2021-07-18 13:17:27 GMT 55.943344 -4.299400 1,500 228 177 -896
2021-07-18 13:17:26 GMT 55.944523 -4.297113 1,525 228 178 -896
2021-07-18 13:17:24 GMT 55.945595 -4.295053 1,575 228 180 -1024
2021-07-18 13:17:22 GMT 55.946136 -4.293990 1,575 228 180 -1024
2021-07-18 13:17:20 GMT 55.947269 -4.291792 1,600 228 181 -896
2021-07-18 13:17:19 GMT 55.947830 -4.290661 1,625 228 181 -832
2021-07-18 13:17:18 GMT 55.948437 -4.289560 1,650 228 183 -896
2021-07-18 13:17:16 GMT 55.949646 -4.287071 1,675 229 184 -1088
2021-07-18 13:17:14 GMT 55.950760 -4.284918 1,725 229 184 -1152
2021-07-18 13:17:13 GMT 55.951904 -4.282587 1,750 229 184 -960
2021-07-18 13:17:11 GMT 55.952408 -4.281505 1,775 230 185 -1088
2021-07-18 13:17:10 GMT 55.953510 -4.279346 1,800 230 185 -1152
2021-07-18 13:17:08 GMT 55.954697 -4.276844 1,850 230 185 -1088
2021-07-18 13:17:06 GMT 55.955246 -4.275762 1,850 230 185 -1088
2021-07-18 13:17:04 GMT 55.956444 -4.273252 1,900 230 185 -1088
2021-07-18 13:17:03 GMT 55.956711 -4.272600 1,900 230 186 -1088
2021-07-18 13:17:01 GMT 55.957977 -4.269991 1,950 230 186 -1152
2021-07-18 13:17:00 GMT 55.958443 -4.268961 1,975 231 187 -1152
2021-07-18 13:16:58 GMT 55.959606 -4.266472 2,000 231 187 -1088
2021-07-18 13:16:56 GMT 55.960831 -4.263861 2,050 231 188 -1088
2021-07-18 13:16:55 GMT 55.961422 -4.262609 2,075 231 188 -1088
2021-07-18 13:16:53 GMT 55.962448 -4.260378 2,100 231 188 -1024
2021-07-18 13:16:52 GMT 55.963669 -4.257702 2,125 232 188 -960
2021-07-18 13:16:50 GMT 55.963943 -4.256952 2,150 233 189 -1152
2021-07-18 13:16:49 GMT 55.964996 -4.254539 2,175 235 189 -1280
2021-07-18 13:16:46 GMT 55.966141 -4.251626 2,225 238 188 -1280
2021-07-18 13:16:45 GMT 55.966690 -4.250211 2,250 238 188 -1344
2021-07-18 13:16:43 GMT 55.967567 -4.247503 2,300 242 188 -1280
2021-07-18 13:16:42 GMT 55.968018 -4.245966 2,325 246 187 -1216
2021-07-18 13:16:40 GMT 55.968704 -4.243136 2,350 251 186 -1088
2021-07-18 13:16:39 GMT 55.968979 -4.241721 2,375 254 185 -1088
2021-07-18 13:16:37 GMT 55.969383 -4.239349 2,400 258 184 -1088
2021-07-18 13:16:36 GMT 55.969620 -4.237726 2,425 260 183 -1088
2021-07-18 13:16:34 GMT 55.969894 -4.234715 2,450 262 183 -960
2021-07-18 13:16:33 GMT 55.970036 -4.233084 2,475 263 183 -960
2021-07-18 13:16:31 GMT 55.970268 -4.230251 2,500 263 183 -1088
2021-07-18 13:16:30 GMT 55.970360 -4.228621 2,525 263 182 -1088
2021-07-18 13:16:29 GMT 55.970581 -4.225492 2,575 263 182 -1024
2021-07-18 13:16:27 GMT 55.970688 -4.223986 2,600 263 182 -960
2021-07-18 13:16:24 GMT 55.970966 -4.219866 2,625 264 181 -832
2021-07-18 13:16:22 GMT 55.971222 -4.216586 2,650 264 181 -768
2021-07-18 13:16:21 GMT 55.971313 -4.215254 2,675 264 181 -576
2021-07-18 13:16:20 GMT 55.971497 -4.212341 2,675 264 182 -128
2021-07-18 13:16:17 GMT 55.971710 -4.208794 2,675 265 182 0
2021-07-18 13:16:15 GMT 55.971863 -4.206432 2,675 265 183 -128
2021-07-18 13:16:14 GMT 55.971954 -4.204934 2,675 265 183 -128
2021-07-18 13:16:12 GMT 55.972092 -4.201854 2,675 266 183 -128
2021-07-18 13:16:11 GMT 55.972183 -4.200273 2,700 266 183 -128
2021-07-18 13:16:09 GMT 55.972267 -4.197292 2,700 267 183 -128
2021-07-18 13:16:08 GMT 55.972363 -4.195919 2,700 268 182 -128
2021-07-18 13:16:06 GMT 55.972408 -4.192572 2,700 269 181 64
2021-07-18 13:16:05 GMT 55.972458 -4.188280 2,700 271 181 256
2021-07-18 13:16:03 GMT 55.972458 -4.188280 2,675 273 181 384
2021-07-18 13:16:02 GMT 55.972408 -4.185362 2,675 276 180 384
2021-07-18 13:16:00 GMT 55.972366 -4.183960 2,675 278 181 320
2021-07-18 13:15:58 GMT 55.971943 -4.179354 2,650 286 182 64
2021-07-18 13:15:56 GMT 55.971756 -4.178066 2,650 289 184 64
2021-07-18 13:15:53 GMT 55.970921 -4.173603 2,650 296 186 64
2021-07-18 13:15:52 GMT 55.970036 -4.170513 2,650 301 187 0
2021-07-18 13:15:49 GMT 55.969292 -4.168196 2,650 306 189 64
2021-07-18 13:15:47 GMT 55.968266 -4.165621 2,650 310 189 128
2021-07-18 13:15:46 GMT 55.967709 -4.164333 2,650 312 189 128
2021-07-18 13:15:43 GMT 55.965363 -4.159907 2,650 317 188 -64
2021-07-18 13:15:41 GMT 55.964680 -4.158754 2,650 318 188 64
2021-07-18 13:15:40 GMT 55.964127 -4.157743 2,650 318 188 64
2021-07-18 13:15:38 GMT 55.962845 -4.155662 2,650 318 187 64
2021-07-18 13:15:37 GMT 55.962074 -4.154463 2,650 318 186 0
2021-07-18 13:15:35 GMT 55.960968 -4.152582 2,650 318 185 0
2021-07-18 13:15:34 GMT 55.960304 -4.151459 2,650 317 184 -64
2021-07-18 13:15:32 GMT 55.959049 -4.149399 2,650 317 183 0
2021-07-18 13:15:31 GMT 55.958313 -4.148171 2,650 317 183 -64
2021-07-18 13:15:29 GMT 55.956940 -4.145924 2,650 317 182 -64
2021-07-18 13:15:28 GMT 55.955841 -4.144010 2,650 317 181 -192
2021-07-18 13:15:26 GMT 55.955185 -4.142962 2,675 317 181 -256
2021-07-18 13:15:25 GMT 55.953323 -4.139786 2,675 317 181 -256
2021-07-18 13:15:23 GMT 55.953323 -4.139786 2,675 317 181 -320
2021-07-18 13:15:21 GMT 55.952133 -4.137851 2,700 317 179 -320
2021-07-18 13:15:20 GMT 55.950851 -4.135687 2,700 318 179 -384
2021-07-18 13:15:17 GMT 55.949615 -4.133689 2,725 317 178 -448
2021-07-18 13:15:16 GMT 55.949112 -4.132774 2,725 317 178 -640
2021-07-18 13:15:15 GMT 55.947876 -4.130776 2,750 317 178 -768
2021-07-18 13:15:12 GMT 55.946732 -4.128862 2,775 318 179 -768
2021-07-18 13:15:11 GMT 55.946182 -4.127863 2,800 318 179 -832
2021-07-18 13:15:10 GMT 55.944397 -4.124950 2,825 318 179 -960
2021-07-18 13:15:08 GMT 55.944397 -4.124950 2,825 318 179 -960
2021-07-18 13:15:06 GMT 55.943127 -4.122877 2,850 318 179 -960
2021-07-18 13:15:05 GMT 55.942520 -4.121787 2,875 317 179 -1024
2021-07-18 13:15:03 GMT 55.941265 -4.119701 2,900 318 180 -960
2021-07-18 13:15:02 GMT 55.940002 -4.117626 2,950 318 180 -768
2021-07-18 13:15:00 GMT 55.939358 -4.116611 2,950 318 181 -704
2021-07-18 13:14:59 GMT 55.938721 -4.115545 2,975 318 181 -640
2021-07-18 13:14:57 GMT 55.937077 -4.112835 3,000 318 181 -640
2021-07-18 13:14:56 GMT 55.937077 -4.112835 3,000 318 181 -768
2021-07-18 13:14:54 GMT 55.935165 -4.109745 3,025 318 181 -832
2021-07-18 13:14:53 GMT 55.935165 -4.109745 3,025 319 182 -896
2021-07-18 13:14:52 GMT 55.933914 -4.107722 3,050 319 183 -768
2021-07-18 13:14:50 GMT 55.933071 -4.106398 3,075 319 183 -704
2021-07-18 13:14:49 GMT 55.932003 -4.104681 3,100 319 184 -576
2021-07-18 13:14:47 GMT 55.931164 -4.103394 3,100 320 184 -576
2021-07-18 13:14:46 GMT 55.930092 -4.101763 3,125 321 185 -384
2021-07-18 13:14:44 GMT 55.929440 -4.100819 3,125 321 185 -320
2021-07-18 13:14:42 GMT 55.927826 -4.098566 3,125 322 185 -192
2021-07-18 13:14:41 GMT 55.927231 -4.097651 3,150 323 187 -128
2021-07-18 13:14:40 GMT 55.925297 -4.095154 3,150 325 188 -64
2021-07-18 13:14:38 GMT 55.925297 -4.095154 3,150 327 188 -64
2021-07-18 13:14:37 GMT 55.923843 -4.093406 3,150 329 189 -64
2021-07-18 13:14:35 GMT 55.922836 -4.092324 3,150 330 189 -64
2021-07-18 13:14:33 GMT 55.921387 -4.090862 3,150 332 188 0
2021-07-18 13:14:30 GMT 55.919621 -4.089146 3,150 333 188 0
2021-07-18 13:14:29 GMT 55.918362 -4.088030 3,150 334 188 0
2021-07-18 13:14:27 GMT 55.916794 -4.086581 3,150 334 188 0
2021-07-18 13:14:26 GMT 55.914684 -4.084682 3,150 334 188 0
2021-07-18 13:14:23 GMT 55.913658 -4.083738 3,150 334 188 64
2021-07-18 13:14:22 GMT 55.912125 -4.082365 3,150 333 188 64
2021-07-18 13:14:20 GMT 55.911438 -4.081754 3,150 333 188 64
2021-07-18 13:14:19 GMT 55.909843 -4.080305 3,150 333 188 64
2021-07-18 13:14:17 GMT 55.909103 -4.079590 3,150 333 188 64
2021-07-18 13:14:16 GMT 55.908234 -4.078841 3,150 333 188 64
2021-07-18 13:14:15 GMT 55.906723 -4.077473 3,150 334 189 64
2021-07-18 13:14:13 GMT 55.905979 -4.076786 3,150 334 189 0
2021-07-18 13:14:11 GMT 55.903046 -4.074125 3,150 333 188 -64
2021-07-18 13:14:08 GMT 55.902069 -4.073181 3,150 333 187 -64
2021-07-18 13:14:07 GMT 55.901325 -4.072580 3,150 333 186 0
2021-07-18 13:14:05 GMT 55.899742 -4.071035 3,150 333 186 0
2021-07-18 13:14:04 GMT 55.898987 -4.070351 3,150 333 186 0
2021-07-18 13:14:01 GMT 55.896576 -4.068203 3,150 333 186 -64
2021-07-18 13:14:00 GMT 55.894958 -4.066689 3,150 333 186 -64
2021-07-18 13:13:58 GMT 55.894108 -4.065971 3,150 334 187 -64
2021-07-18 13:13:57 GMT 55.892525 -4.064512 3,150 333 187 0
2021-07-18 13:13:55 GMT 55.891735 -4.063740 3,150 333 188 0
2021-07-18 13:13:53 GMT 55.890198 -4.062366 3,150 333 190 0
2021-07-18 13:13:52 GMT 55.889454 -4.061680 3,150 333 190 0
2021-07-18 13:13:51 GMT 55.888046 -4.060364 3,150 333 192 -64
2021-07-18 13:13:48 GMT 55.886307 -4.058866 3,150 333 193 -64
2021-07-18 13:13:46 GMT 55.883881 -4.056618 3,150 333 195 0
2021-07-18 13:13:44 GMT 55.883076 -4.055843 3,150 333 195 0
2021-07-18 13:13:42 GMT 55.881638 -4.054538 3,150 333 198 64
2021-07-18 13:13:41 GMT 55.880768 -4.053789 3,150 333 199 64
2021-07-18 13:13:39 GMT 55.879353 -4.052410 3,150 333 200 64
2021-07-18 13:13:36 GMT 55.877071 -4.050350 3,150 333 203 -64
2021-07-18 13:13:34 GMT 55.874973 -4.048376 3,150 333 205 0
2021-07-18 13:13:33 GMT 55.874275 -4.047775 3,150 333 206 0
2021-07-18 13:13:32 GMT 55.873344 -4.046831 3,150 333 207 0
2021-07-18 13:13:31 GMT 55.871613 -4.045299 3,150 333 209 0
2021-07-18 13:13:28 GMT 55.870285 -4.044051 3,150 333 210 64
2021-07-18 13:13:26 GMT 55.868549 -4.042454 3,150 333 212 0
2021-07-18 13:13:25 GMT 55.866486 -4.040555 3,150 333 212 -64
2021-07-18 13:13:23 GMT 55.865620 -4.039707 3,150 333 215 0
2021-07-18 13:13:21 GMT 55.863754 -4.038076 3,150 333 216 0
2021-07-18 13:13:20 GMT 55.862919 -4.037218 3,150 333 217 0
2021-07-18 13:13:18 GMT 55.861404 -4.035811 3,150 333 219 -64
2021-07-18 13:13:17 GMT 55.860451 -4.034986 3,150 333 219 -64
2021-07-18 13:13:15 GMT 55.858543 -4.033184 3,150 333 221 -128
2021-07-18 13:13:14 GMT 55.857567 -4.032326 3,150 333 222 -192
2021-07-18 13:13:12 GMT 55.855591 -4.030484 3,175 333 224 -448
2021-07-18 13:13:10 GMT 55.854126 -4.029153 3,175 333 224 -448
2021-07-18 13:13:09 GMT 55.853073 -4.028154 3,175 333 225 -512
2021-07-18 13:13:08 GMT 55.852165 -4.027348 3,200 333 225 -512
2021-07-18 13:13:06 GMT 55.850143 -4.025491 3,225 333 226 -576
2021-07-18 13:13:05 GMT 55.849277 -4.024687 3,225 333 227 -576
2021-07-18 13:13:03 GMT 55.847507 -4.023056 3,250 333 228 -512
2021-07-18 13:13:02 GMT 55.846531 -4.022112 3,250 333 228 -448
2021-07-18 13:13:01 GMT 55.844578 -4.020309 3,275 333 229 -384
2021-07-18 13:12:59 GMT 55.843826 -4.019664 3,275 333 229 -384
2021-07-18 13:12:58 GMT 55.842899 -4.018764 3,275 333 230 -384
2021-07-18 13:12:56 GMT 55.840946 -4.017048 3,300 333 232 -384
2021-07-18 13:12:55 GMT 55.840061 -4.016190 3,300 333 232 -384
2021-07-18 13:12:53 GMT 55.837967 -4.014301 3,300 333 233 -448
2021-07-18 13:12:52 GMT 55.837051 -4.013422 3,325 333 233 -448
2021-07-18 13:12:50 GMT 55.835129 -4.011674 3,325 333 235 -576
2021-07-18 13:12:49 GMT 55.834213 -4.010759 3,350 333 236 -640
2021-07-18 13:12:47 GMT 55.832241 -4.008980 3,375 333 238 -704
2021-07-18 13:12:45 GMT 55.830238 -4.007177 3,400 333 238 -768
2021-07-18 13:12:44 GMT 55.829361 -4.006348 3,400 333 239 -768
2021-07-18 13:12:42 GMT 55.827301 -4.004433 3,425 333 241 -832
2021-07-18 13:12:41 GMT 55.826374 -4.003572 3,450 333 243 -832
2021-07-18 13:12:40 GMT 55.825470 -4.002769 3,450 333 243 -896
2021-07-18 13:12:39 GMT 55.823090 -4.000605 3,500 333 244 -960
2021-07-18 13:12:37 GMT 55.822231 -3.999796 3,500 333 245 -960
2021-07-18 13:12:36 GMT 55.820370 -3.998079 3,550 334 246 -960
2021-07-18 13:12:34 GMT 55.819427 -3.997192 3,550 333 248 -960
2021-07-18 13:12:32 GMT 55.817322 -3.995361 3,575 334 249 -896
2021-07-18 13:12:31 GMT 55.815296 -3.993444 3,625 334 250 -832
2021-07-18 13:12:29 GMT 55.814224 -3.992500 3,625 334 251 -768
2021-07-18 13:12:28 GMT 55.812038 -3.990612 3,650 334 253 -704
2021-07-18 13:12:26 GMT 55.811012 -3.989668 3,675 334 253 -704
2021-07-18 13:12:25 GMT 55.809860 -3.988620 3,675 334 254 -768
2021-07-18 13:12:23 GMT 55.807800 -3.986789 3,700 334 255 -768
2021-07-18 13:12:22 GMT 55.806610 -3.985707 3,725 334 256 -832
2021-07-18 13:12:21 GMT 55.804642 -3.983959 3,750 334 256 -960
2021-07-18 13:12:19 GMT 55.803726 -3.983127 3,775 334 256 -1152
2021-07-18 13:12:17 GMT 55.801609 -3.981256 3,800 334 256 -1536
2021-07-18 13:12:16 GMT 55.800568 -3.980380 3,850 334 256 -1856
2021-07-18 13:12:15 GMT 55.798370 -3.978382 3,900 334 254 -2368
2021-07-18 13:12:12 GMT 55.795837 -3.976192 4,000 334 254 -2368
2021-07-18 13:12:10 GMT 55.794113 -3.974720 4,075 334 254 -2304
2021-07-18 13:12:09 GMT 55.793041 -3.973789 4,100 334 254 -2304
2021-07-18 13:12:08 GMT 55.789738 -3.970957 4,225 334 254 -2240
2021-07-18 13:12:06 GMT 55.789738 -3.970957 4,225 334 254 -2240
2021-07-18 13:12:04 GMT 55.787704 -3.969144 4,275 334 254 -2240
2021-07-18 13:12:03 GMT 55.786560 -3.968145 4,325 335 255 -2176
2021-07-18 13:12:02 GMT 55.785503 -3.967266 4,375 335 255 -2176
2021-07-18 13:12:01 GMT 55.783310 -3.965399 4,450 334 254 -2176
2021-07-18 13:11:58 GMT 55.781158 -3.963484 4,525 334 254 -2176
2021-07-18 13:11:57 GMT 55.780106 -3.962569 4,550 334 254 -2176
2021-07-18 13:11:56 GMT 55.779171 -3.961773 4,600 334 254 -2176
2021-07-18 13:11:55 GMT 55.776947 -3.959822 4,675 334 255 -2176
2021-07-18 13:11:52 GMT 55.774796 -3.957996 4,750 334 255 -2112
2021-07-18 13:11:51 GMT 55.773697 -3.956992 4,775 334 256 -2048
2021-07-18 13:11:48 GMT 55.769440 -3.953247 4,900 334 256 -1728
2021-07-18 13:11:46 GMT 55.768276 -3.952246 4,925 334 257 -1664
2021-07-18 13:11:45 GMT 55.766556 -3.950701 4,975 334 257 -1600
2021-07-18 13:11:43 GMT 55.765438 -3.949757 5,000 334 258 -1600
2021-07-18 13:11:40 GMT 55.762207 -3.946922 5,075 334 259 -1728
2021-07-18 13:11:39 GMT 55.761108 -3.945980 5,100 334 259 -1728
2021-07-18 13:11:38 GMT 55.757710 -3.943062 5,200 334 259 -1664
2021-07-18 13:11:36 GMT 55.757710 -3.943062 5,200 335 260 -1664
2021-07-18 13:11:35 GMT 55.755569 -3.941174 5,250 335 260 -1664
2021-07-18 13:11:33 GMT 55.754406 -3.940229 5,275 335 261 -1728
2021-07-18 13:11:30 GMT 55.750961 -3.937225 5,375 335 261 -1920
2021-07-18 13:11:28 GMT 55.749283 -3.935766 5,425 335 259 -2176
2021-07-18 13:11:27 GMT 55.748154 -3.934770 5,475 335 259 -2176
2021-07-18 13:11:25 GMT 55.745911 -3.932856 5,550 335 259 -2304
2021-07-18 13:11:24 GMT 55.743805 -3.931108 5,625 335 258 -2304
2021-07-18 13:11:22 GMT 55.741287 -3.928944 5,725 335 258 -2304
2021-07-18 13:11:20 GMT 55.740646 -3.928361 5,750 335 258 -2240
2021-07-18 13:11:18 GMT 55.738403 -3.926447 5,800 335 258 -2176
2021-07-18 13:11:17 GMT 55.737213 -3.925448 5,850 335 258 -2048
2021-07-18 13:11:16 GMT 55.734970 -3.923534 5,925 335 259 -1792
2021-07-18 13:11:13 GMT 55.733963 -3.922619 5,950 335 259 -1600
2021-07-18 13:11:12 GMT 55.732803 -3.921690 6,000 335 259 -1472
2021-07-18 13:11:10 GMT 55.730667 -3.919872 6,025 335 260 -1216
2021-07-18 13:11:09 GMT 55.729591 -3.918943 6,025 335 260 -1152
2021-07-18 13:11:08 GMT 55.727463 -3.917125 6,075 335 262 -1024
2021-07-18 13:11:06 GMT 55.726475 -3.916283 6,100 335 262 -1024
2021-07-18 13:11:04 GMT 55.724331 -3.914394 6,125 335 262 -1088
2021-07-18 13:11:02 GMT 55.721054 -3.911632 6,175 335 265 -1408
2021-07-18 13:11:00 GMT 55.718170 -3.909219 6,250 335 266 -1536
2021-07-18 13:10:58 GMT 55.715347 -3.906841 6,300 335 266 -1664
2021-07-18 13:10:55 GMT 55.714096 -3.905723 6,375 335 267 -1728
2021-07-18 13:10:53 GMT 55.711948 -3.903923 6,400 335 267 -1792
2021-07-18 13:10:52 GMT 55.710800 -3.902976 6,425 335 267 -1856
2021-07-18 13:10:51 GMT 55.708649 -3.901062 6,500 335 267 -1856
2021-07-18 13:10:48 GMT 55.706085 -3.898945 6,525 335 267 -1856
2021-07-18 13:10:46 GMT 55.703064 -3.896401 6,700 335 267 -1920
2021-07-18 13:10:44 GMT 55.701874 -3.895402 6,700 335 267 -1856
2021-07-18 13:10:43 GMT 55.699844 -3.893709 6,725 335 267 -1792
2021-07-18 13:10:41 GMT 55.698357 -3.892422 6,775 335 267 -1792
2021-07-18 13:10:39 GMT 55.696198 -3.890658 6,850 335 267 -1728
2021-07-18 13:10:38 GMT 55.695049 -3.889675 6,850 335 267 -1664
2021-07-18 13:10:36 GMT 55.692673 -3.887662 6,925 335 267 -1664
2021-07-18 13:10:34 GMT 55.691437 -3.886663 6,950 335 267 -1664
2021-07-18 13:10:33 GMT 55.689423 -3.884915 7,000 335 267 -1728
2021-07-18 13:10:32 GMT 55.688255 -3.883924 7,025 335 267 -1728
2021-07-18 13:10:31 GMT 55.686035 -3.882086 7,075 335 268 -1728
2021-07-18 13:10:29 GMT 55.684994 -3.881178 7,100 335 268 -1728
2021-07-18 13:10:26 GMT 55.681644 -3.878431 7,250 335 268 -1856
2021-07-18 13:10:24 GMT 55.679688 -3.876801 7,250 335 268 -1920
2021-07-18 13:10:23 GMT 55.678013 -3.875427 7,300 336 267 -1984
2021-07-18 13:10:21 GMT 55.675781 -3.873513 7,375 336 267 -1984
2021-07-18 13:10:19 GMT 55.673962 -3.872080 7,425 336 268 -1984
2021-07-18 13:10:18 GMT 55.671448 -3.870020 7,500 336 268 -1920
2021-07-18 13:10:16 GMT 55.670288 -3.869102 7,525 336 268 -1856
2021-07-18 13:10:15 GMT 55.669167 -3.868132 7,550 336 268 -1856
2021-07-18 13:10:13 GMT 55.666981 -3.866415 7,625 336 268 -1728
2021-07-18 13:10:11 GMT 55.663536 -3.863668 7,675 336 268 -1664
2021-07-18 13:10:10 GMT 55.663536 -3.863668 7,700 336 268 -1600
2021-07-18 13:10:09 GMT 55.661205 -3.861780 7,750 336 268 -1600
2021-07-18 13:10:06 GMT 55.658924 -3.859892 7,800 336 268 -1536
2021-07-18 13:10:04 GMT 55.656693 -3.858175 7,875 336 268 -1536
2021-07-18 13:10:03 GMT 55.655621 -3.857317 7,875 336 268 -1536
2021-07-18 13:10:01 GMT 55.653385 -3.855515 7,925 336 268 -1600
2021-07-18 13:09:59 GMT 55.651016 -3.853621 8,000 336 268 -1664
2021-07-18 13:09:58 GMT 55.649986 -3.852768 8,025 336 268 -1664
2021-07-18 13:09:57 GMT 55.648727 -3.851790 8,050 336 268 -1600
2021-07-18 13:09:55 GMT 55.646530 -3.850042 8,100 336 268 -1600
2021-07-18 13:09:54 GMT 55.645428 -3.849163 8,125 336 269 -1536
2021-07-18 13:09:53 GMT 55.642216 -3.846588 8,200 336 269 -1472
2021-07-18 13:09:51 GMT 55.642216 -3.846588 8,200 336 269 -1408
2021-07-18 13:09:49 GMT 55.639893 -3.844715 8,275 336 269 -1344
2021-07-18 13:09:48 GMT 55.638702 -3.843800 8,375 336 269 -1344
2021-07-18 13:09:46 GMT 55.636162 -3.841782 8,375 336 271 -1280
2021-07-18 13:09:43 GMT 55.633041 -3.839293 8,375 336 271 -1280
2021-07-18 13:09:42 GMT 55.631180 -3.837833 8,400 336 271 -1280
2021-07-18 13:09:40 GMT 55.627689 -3.835087 8,475 337 272 -1280
2021-07-18 13:09:37 GMT 55.625519 -3.833396 8,500 337 273 -1344
2021-07-18 13:09:35 GMT 55.623081 -3.831482 8,550 337 273 -1408
2021-07-18 13:09:33 GMT 55.621361 -3.830109 8,625 337 273 -1472
2021-07-18 13:09:31 GMT 55.618984 -3.828306 8,625 337 273 -1472
2021-07-18 13:09:30 GMT 55.616913 -3.826738 8,675 337 273 -1536
2021-07-18 13:09:28 GMT 55.615677 -3.825739 8,700 337 273 -1536
2021-07-18 13:09:27 GMT 55.614563 -3.824873 8,775 337 274 -1472
2021-07-18 13:09:26 GMT 55.612282 -3.823071 8,775 337 274 -1408
2021-07-18 13:09:24 GMT 55.611145 -3.822243 8,800 337 274 -1408
2021-07-18 13:09:23 GMT 55.609497 -3.820912 8,875 337 274 -1344
2021-07-18 13:09:21 GMT 55.607346 -3.819294 8,900 337 274 -1344
2021-07-18 13:09:19 GMT 55.604877 -3.817406 8,925 337 274 -1280
2021-07-18 13:09:17 GMT 55.601761 -3.815002 9,000 337 275 -1280
2021-07-18 13:09:15 GMT 55.600456 -3.813972 9,025 337 275 -1280
2021-07-18 13:09:14 GMT 55.598221 -3.812170 9,050 337 276 -1344
2021-07-18 13:09:12 GMT 55.597183 -3.811424 9,075 337 276 -1344
2021-07-18 13:09:11 GMT 55.594849 -3.809593 9,125 337 276 -1408
2021-07-18 13:09:09 GMT 55.593193 -3.808308 9,150 337 276 -1472
2021-07-18 13:09:08 GMT 55.590866 -3.806513 9,200 337 276 -1472
2021-07-18 13:09:05 GMT 55.587467 -3.803930 9,275 337 276 -1536
2021-07-18 13:09:03 GMT 55.586334 -3.803017 9,300 337 276 -1600
2021-07-18 13:09:02 GMT 55.584068 -3.801270 9,350 337 276 -1600
2021-07-18 13:09:00 GMT 55.583084 -3.800520 9,375 337 275 -1600
2021-07-18 13:08:59 GMT 55.581928 -3.799639 9,400 337 275 -1600
2021-07-18 13:08:57 GMT 55.579422 -3.797691 9,475 337 275 -1536
2021-07-18 13:08:56 GMT 55.578342 -3.796892 9,475 337 275 -1472
2021-07-18 13:08:54 GMT 55.575970 -3.795090 9,525 337 276 -1344
2021-07-18 13:08:53 GMT 55.574707 -3.794112 9,550 337 276 -1280
2021-07-18 13:08:52 GMT 55.572327 -3.792281 9,600 337 277 -1152
2021-07-18 13:08:50 GMT 55.570988 -3.791313 9,625 337 277 -1152
2021-07-18 13:08:48 GMT 55.568710 -3.789617 9,650 337 278 -1088
2021-07-18 13:08:47 GMT 55.567474 -3.788619 9,675 337 278 -1024
2021-07-18 13:08:45 GMT 55.565048 -3.786788 9,725 338 279 -1024
2021-07-18 13:08:43 GMT 55.562622 -3.785040 9,725 338 279 -1024
2021-07-18 13:08:41 GMT 55.560421 -3.783331 9,775 338 280 -1216
2021-07-18 13:08:40 GMT 55.558002 -3.781614 9,825 338 279 -1536
2021-07-18 13:08:37 GMT 55.556213 -3.780212 9,875 338 279 -1664
2021-07-18 13:08:36 GMT 55.554790 -3.779211 9,925 338 279 -1920
2021-07-18 13:08:34 GMT 55.552368 -3.777383 9,975 338 278 -2112
2021-07-18 13:08:32 GMT 55.549713 -3.775434 10,075 338 278 -2176
2021-07-18 13:08:31 GMT 55.548248 -3.774386 10,100 338 278 -2240
2021-07-18 13:08:30 GMT 55.546036 -3.772688 10,175 338 279 -2240
2021-07-18 13:08:28 GMT 55.544735 -3.771744 10,225 338 279 -2304
2021-07-18 13:08:26 GMT 55.542824 -3.770370 10,275 338 279 -2368
2021-07-18 13:08:25 GMT 55.541519 -3.769426 10,325 338 280 -2368
2021-07-18 13:08:23 GMT 55.539001 -3.767478 10,400 338 279 -2432
2021-07-18 13:08:22 GMT 55.537903 -3.766646 10,450 338 279 -2432
2021-07-18 13:08:21 GMT 55.535614 -3.764981 10,525 337 279 -2432
2021-07-18 13:08:19 GMT 55.534306 -3.763933 10,575 337 279 -2432
2021-07-18 13:08:18 GMT 55.533142 -3.763067 10,600 337 279 -2432
2021-07-18 13:08:16 GMT 55.530582 -3.761187 10,700 337 279 -2432
2021-07-18 13:08:15 GMT 55.529419 -3.760242 10,725 337 279 -2368
2021-07-18 13:08:14 GMT 55.527145 -3.758489 10,800 336 279 -2240
2021-07-18 13:08:12 GMT 55.525955 -3.757574 10,850 336 279 -2240
2021-07-18 13:08:10 GMT 55.523621 -3.755660 10,925 336 280 -2176
2021-07-18 13:08:09 GMT 55.522530 -3.754749 10,950 336 280 -2112
2021-07-18 13:08:08 GMT 55.521194 -3.753745 11,000 335 280 -2048
2021-07-18 13:08:07 GMT 55.518803 -3.751745 11,075 335 281 -1984
2021-07-18 13:08:05 GMT 55.517578 -3.750666 11,100 334 281 -1984
2021-07-18 13:08:04 GMT 55.515198 -3.748585 11,150 334 281 -1920
2021-07-18 13:08:02 GMT 55.514057 -3.747540 11,200 333 282 -1984
2021-07-18 13:08:01 GMT 55.511719 -3.745422 11,250 333 281 -2112
2021-07-18 13:07:59 GMT 55.510483 -3.744340 11,300 332 281 -2240
2021-07-18 13:07:57 GMT 55.508144 -3.742046 11,375 331 282 -2560
2021-07-18 13:07:56 GMT 55.506981 -3.740931 11,425 331 282 -2560
2021-07-18 13:07:55 GMT 55.505165 -3.739128 11,500 331 281 -2560
2021-07-18 13:07:53 GMT 55.503956 -3.737926 11,550 330 281 -2560
2021-07-18 13:07:52 GMT 55.502838 -3.736725 11,575 330 281 -2560
2021-07-18 13:07:51 GMT 55.499359 -3.733188 11,700 330 281 -2560
2021-07-18 13:07:49 GMT 55.499359 -3.733188 11,725 330 281 -2560
2021-07-18 13:07:48 GMT 55.495880 -3.729692 11,825 330 281 -2496
2021-07-18 13:07:46 GMT 55.495880 -3.729692 11,850 330 281 -2496
2021-07-18 13:07:45 GMT 55.494736 -3.728527 11,875 330 281 -2432
2021-07-18 13:07:44 GMT 55.492630 -3.726363 11,975 330 282 -2368
2021-07-18 13:07:42 GMT 55.491623 -3.725281 12,000 330 283 -2368
2021-07-18 13:07:40 GMT 55.488968 -3.722617 12,100 330 283 -2304
2021-07-18 13:07:39 GMT 55.487732 -3.721369 12,125 330 283 -2240
2021-07-18 13:07:37 GMT 55.485535 -3.719122 12,200 331 284 -2176
2021-07-18 13:07:35 GMT 55.483425 -3.716984 12,275 330 284 -2112
2021-07-18 13:07:34 GMT 55.481094 -3.714544 12,325 330 285 -2048
2021-07-18 13:07:32 GMT 55.479858 -3.713296 12,375 330 285 -1984
2021-07-18 13:07:31 GMT 55.478531 -3.711964 12,425 331 286 -1920
2021-07-18 13:07:30 GMT 55.476395 -3.709774 12,475 330 287 -1856
2021-07-18 13:07:28 GMT 55.475143 -3.708552 12,500 330 287 -1792
2021-07-18 13:07:26 GMT 55.472900 -3.706221 12,550 330 289 -1600
2021-07-18 13:07:25 GMT 55.471832 -3.705139 12,575 330 289 -1536
2021-07-18 13:07:24 GMT 55.469650 -3.702892 12,625 331 292 -1344
2021-07-18 13:07:22 GMT 55.468388 -3.701620 12,650 331 292 -1280
2021-07-18 13:07:21 GMT 55.466015 -3.699217 12,700 331 294 -1152
2021-07-18 13:07:18 GMT 55.463688 -3.696899 12,725 331 296 -1088
2021-07-18 13:07:17 GMT 55.461273 -3.694403 12,750 331 298 -1024
2021-07-18 13:07:15 GMT 55.460148 -3.693295 12,775 331 300 -1024
2021-07-18 13:07:14 GMT 55.458801 -3.691906 12,800 330 301 -1024
2021-07-18 13:07:12 GMT 55.456516 -3.689604 12,825 330 303 -1024
2021-07-18 13:07:11 GMT 55.455093 -3.688160 12,850 331 304 -1024
2021-07-18 13:07:10 GMT 55.452667 -3.685663 12,875 331 306 -1088
2021-07-18 13:07:08 GMT 55.451385 -3.684415 12,900 331 308 -1088
2021-07-18 13:07:07 GMT 55.450241 -3.683250 12,925 331 309 -1088
2021-07-18 13:07:06 GMT 55.447624 -3.680592 12,950 331 311 -1088
2021-07-18 13:07:04 GMT 55.446304 -3.679255 12,975 331 312 -1152
2021-07-18 13:07:03 GMT 55.445110 -3.678017 13,000 331 313 -1152
2021-07-18 13:07:02 GMT 55.442596 -3.675492 13,025 331 315 -1152
2021-07-18 13:07:00 GMT 55.441223 -3.674119 13,050 331 317 -1216
2021-07-18 13:06:59 GMT 55.438934 -3.671776 13,100 331 321 -1216
2021-07-18 13:06:57 GMT 55.437744 -3.670565 13,125 331 322 -1216
2021-07-18 13:06:56 GMT 55.436638 -3.669434 13,125 331 322 -1216
2021-07-18 13:06:55 GMT 55.432636 -3.665439 13,175 331 326 -1216
2021-07-18 13:06:53 GMT 55.432636 -3.665439 13,200 331 326 -1216
2021-07-18 13:06:52 GMT 55.429981 -3.662775 13,225 331 328 -1216
2021-07-18 13:06:50 GMT 55.428726 -3.661527 13,250 331 330 -1216
2021-07-18 13:06:49 GMT 55.425934 -3.658690 13,300 331 334 -1216
2021-07-18 13:06:47 GMT 55.424515 -3.657236 13,325 331 334 -1216
2021-07-18 13:06:46 GMT 55.421974 -3.654702 13,350 331 337 -1216
2021-07-18 13:06:44 GMT 55.420578 -3.653287 13,375 331 339 -1152
2021-07-18 13:06:43 GMT 55.417740 -3.650450 13,400 331 341 -1088
2021-07-18 13:06:41 GMT 55.416412 -3.649077 13,425 331 343 -1088
2021-07-18 13:06:39 GMT 55.414810 -3.647542 13,450 331 345 -1024
2021-07-18 13:06:37 GMT 55.411594 -3.644298 13,475 331 346 -1024
2021-07-18 13:06:36 GMT 55.410152 -3.642800 13,500 331 348 -1024
2021-07-18 13:06:35 GMT 55.407497 -3.640137 13,525 331 351 -960
2021-07-18 13:06:33 GMT 55.406021 -3.638656 13,550 331 352 -960
2021-07-18 13:06:31 GMT 55.403366 -3.635990 13,575 331 353 -960
2021-07-18 13:06:30 GMT 55.401863 -3.634477 13,600 331 354 -1024
2021-07-18 13:06:27 GMT 55.398239 -3.630901 13,650 331 357 -1152
2021-07-18 13:06:26 GMT 55.395439 -3.628068 13,675 331 359 -1280
2021-07-18 13:06:24 GMT 55.393860 -3.626487 13,700 331 360 -1472
2021-07-18 13:06:22 GMT 55.390972 -3.623574 13,775 331 361 -1664
2021-07-18 13:06:21 GMT 55.389526 -3.622159 13,825 331 361 -1856
2021-07-18 13:06:19 GMT 55.385925 -3.618541 13,875 331 362 -1920
2021-07-18 13:06:18 GMT 55.384323 -3.616925 13,900 331 363 -1856
2021-07-18 13:06:17 GMT 55.383499 -3.616118 13,925 331 364 -1728
2021-07-18 13:06:15 GMT 55.380310 -3.612921 13,975 331 364 -1536
2021-07-18 13:06:13 GMT 55.377285 -3.609924 14,000 331 366 -1280
2021-07-18 13:06:12 GMT 55.375702 -3.608343 14,050 331 368 -1408
2021-07-18 13:06:11 GMT 55.372910 -3.605513 14,100 331 369 -1728
2021-07-18 13:06:09 GMT 55.371513 -3.604098 14,125 331 369 -1984
2021-07-18 13:06:08 GMT 55.366905 -3.599521 14,175 331 370 -2048
2021-07-18 13:06:06 GMT 55.366905 -3.599521 14,225 331 370 -2048
2021-07-18 13:06:05 GMT 55.363972 -3.596608 14,300 331 371 -1984
2021-07-18 13:06:03 GMT 55.362396 -3.595034 14,300 331 371 -1984
2021-07-18 13:06:02 GMT 55.359268 -3.591863 14,425 331 371 -1984
2021-07-18 13:06:00 GMT 55.357872 -3.590532 14,425 331 373 -1984
2021-07-18 13:05:58 GMT 55.355438 -3.588086 14,450 331 373 -1984
2021-07-18 13:05:57 GMT 55.353870 -3.586454 14,525 331 373 -1984
2021-07-18 13:05:56 GMT 55.350998 -3.583643 14,550 331 373 -1984
2021-07-18 13:05:53 GMT 55.347290 -3.579847 14,650 331 373 -1920
2021-07-18 13:05:52 GMT 55.344234 -3.576799 14,700 331 373 -1920
2021-07-18 13:05:49 GMT 55.341202 -3.573707 14,775 331 374 -1920
2021-07-18 13:05:48 GMT 55.339645 -3.572172 14,800 331 374 -1856
2021-07-18 13:05:47 GMT 55.336506 -3.568975 14,925 331 374 -2048
2021-07-18 13:05:44 GMT 55.334179 -3.566645 14,950 331 374 -2048
2021-07-18 13:05:43 GMT 55.332642 -3.565063 15,025 331 374 -1984
2021-07-18 13:05:42 GMT 55.331154 -3.563565 15,000 330 375 -1984
2021-07-18 13:05:41 GMT 55.325661 -3.557989 15,125 330 375 -1920
2021-07-18 13:05:39 GMT 55.322296 -3.554562 15,175 330 375 -1984
2021-07-18 13:05:37 GMT 55.322296 -3.554562 15,200 330 375 -1984
2021-07-18 13:05:36 GMT 55.319458 -3.551734 15,275 330 375 -1984
2021-07-18 13:05:34 GMT 55.317947 -3.550200 15,300 330 375 -1920
2021-07-18 13:05:33 GMT 55.316582 -3.548834 15,375 331 374 -1920
2021-07-18 13:05:31 GMT 55.314255 -3.546420 15,375 331 374 -1920
2021-07-18 13:05:30 GMT 55.311134 -3.543257 15,475 331 374 -1920
2021-07-18 13:05:28 GMT 55.308151 -3.540263 15,525 331 374 -1920
2021-07-18 13:05:26 GMT 55.306595 -3.538729 15,575 331 374 -1920
2021-07-18 13:05:25 GMT 55.303574 -3.535659 15,625 331 374 -1920
2021-07-18 13:05:23 GMT 55.302109 -3.534205 15,650 331 374 -1920
2021-07-18 13:05:21 GMT 55.300003 -3.532104 15,700 331 374 -1920
2021-07-18 13:05:20 GMT 55.297634 -3.529691 15,750 331 374 -1920
2021-07-18 13:05:18 GMT 55.294796 -3.526861 15,800 331 373 -1920
2021-07-18 13:05:17 GMT 55.293304 -3.525363 15,850 331 373 -1920
2021-07-18 13:05:15 GMT 55.290298 -3.522330 15,900 331 373 -1920
2021-07-18 13:05:13 GMT 55.288010 -3.520068 15,950 331 373 -1856
2021-07-18 13:05:12 GMT 55.286591 -3.518695 15,975 331 373 -1856
2021-07-18 13:05:11 GMT 55.282692 -3.514793 16,050 331 373 -1856
2021-07-18 13:05:10 GMT 55.282692 -3.514793 16,075 331 373 -1856
2021-07-18 13:05:09 GMT 55.279404 -3.511505 16,125 331 373 -1920
2021-07-18 13:05:07 GMT 55.277710 -3.509799 16,175 331 373 -1920
2021-07-18 13:05:06 GMT 55.276173 -3.508301 16,200 331 373 -1984
2021-07-18 13:05:04 GMT 55.273270 -3.505366 16,250 331 374 -1920
2021-07-18 13:05:03 GMT 55.271667 -3.503750 16,300 331 375 -1920
2021-07-18 13:05:01 GMT 55.268555 -3.500680 16,350 331 375 -1920
2021-07-18 13:04:59 GMT 55.265652 -3.497731 16,400 331 375 -1984
2021-07-18 13:04:58 GMT 55.264206 -3.496318 16,450 331 376 -1984
2021-07-18 13:04:55 GMT 55.260391 -3.492487 16,525 331 377 -1984
2021-07-18 13:04:54 GMT 55.258205 -3.490323 16,575 331 378 -1984
2021-07-18 13:04:52 GMT 55.255051 -3.487109 16,650 331 378 -1984
2021-07-18 13:04:50 GMT 55.248894 -3.481001 16,775 331 380 -1984
2021-07-18 13:04:48 GMT 55.248894 -3.481001 16,775 331 381 -2048
2021-07-18 13:04:47 GMT 55.247406 -3.479516 16,825 331 382 -2048
2021-07-18 13:04:45 GMT 55.244522 -3.476607 16,875 331 382 -2048
2021-07-18 13:04:43 GMT 55.241447 -3.473594 16,950 331 383 -2048
2021-07-18 13:04:41 GMT 55.238094 -3.470182 17,025 331 383 -2048
2021-07-18 13:04:40 GMT 55.236698 -3.468767 17,050 331 384 -2048
2021-07-18 13:04:39 GMT 55.233532 -3.465687 17,125 331 384 -2048
2021-07-18 13:04:37 GMT 55.231903 -3.464023 17,150 331 386 -2048
2021-07-18 13:04:36 GMT 55.227760 -3.459861 17,250 331 386 -2048
2021-07-18 13:04:34 GMT 55.227760 -3.459861 17,275 331 386 -2048
2021-07-18 13:04:31 GMT 55.223057 -3.455200 17,350 331 388 -1984
2021-07-18 13:04:30 GMT 55.220810 -3.452938 17,400 331 388 -1984
2021-07-18 13:04:28 GMT 55.218475 -3.450596 17,450 331 388 -1984
2021-07-18 13:04:26 GMT 55.215271 -3.447364 17,525 331 389 -1984
2021-07-18 13:04:25 GMT 55.211517 -3.443648 17,600 331 389 -1920
2021-07-18 13:04:23 GMT 55.209961 -3.442033 17,625 331 389 -1984
2021-07-18 13:04:21 GMT 55.206810 -3.438887 17,700 331 390 -1984
2021-07-18 13:04:20 GMT 55.205429 -3.437509 17,925 331 392 -2048
2021-07-18 13:04:18 GMT 55.198711 -3.430814 17,825 331 391 -1984
2021-07-18 13:04:15 GMT 55.198711 -3.430814 18,150 331 394 -2048
2021-07-18 13:04:12 GMT 55.188766 -3.420868 18,100 331 393 -2048
2021-07-18 13:04:09 GMT 55.188766 -3.420868 18,075 331 393 -2112
2021-07-18 13:04:07 GMT 55.184467 -3.416665 18,175 331 394 -2048
2021-07-18 13:04:04 GMT 55.179062 -3.411255 18,300 331 395 -2048
2021-07-18 13:04:01 GMT 55.176552 -3.408758 18,350 331 395 -2048
2021-07-18 13:03:59 GMT 55.172966 -3.405179 18,425 331 395 -2048
2021-07-18 13:03:57 GMT 55.168991 -3.401238 18,525 331 395 -2048
2021-07-18 13:03:54 GMT 55.166031 -3.398271 18,575 331 396 -2112
2021-07-18 13:03:52 GMT 55.162262 -3.394533 18,650 331 396 -2112
2021-07-18 13:03:49 GMT 55.152054 -3.384355 18,825 331 396 -2112
2021-07-18 13:03:46 GMT 55.152054 -3.384355 18,950 331 396 -2112
2021-07-18 13:03:43 GMT 55.148529 -3.380881 19,000 331 396 -2176
2021-07-18 13:03:41 GMT 55.141033 -3.373469 19,075 331 396 -2112
2021-07-18 13:03:39 GMT 55.141033 -3.373469 19,150 331 396 -2112
2021-07-18 13:03:37 GMT 55.132599 -3.365048 19,350 331 396 -2048
2021-07-18 13:03:34 GMT 55.132599 -3.365048 19,325 331 396 -2112
2021-07-18 13:03:29 GMT 55.118687 -3.351246 19,600 331 396 -1984
2021-07-18 13:03:26 GMT 55.115433 -3.348003 19,675 331 397 -2048
2021-07-18 13:03:23 GMT 55.115433 -3.348003 19,700 331 397 -2048
2021-07-18 13:03:21 GMT 55.107746 -3.340343 19,775 331 396 -1984
2021-07-18 13:03:18 GMT 55.107746 -3.340343 19,850 331 396 -1920
2021-07-18 13:03:15 GMT 55.102936 -3.335562 19,950 331 397 -1920
2021-07-18 13:03:12 GMT 55.098019 -3.330772 20,100 331 398 -1920
2021-07-18 13:03:09 GMT 55.094154 -3.326943 20,150 331 399 -1984
2021-07-18 13:03:07 GMT 55.091080 -3.323849 20,275 331 399 -2048
2021-07-18 13:03:04 GMT 55.086090 -3.318921 20,300 331 399 -2112
2021-07-18 13:03:02 GMT 55.082153 -3.315044 20,450 331 401 -2176
2021-07-18 13:02:59 GMT 55.074966 -3.307935 20,525 331 401 -2176
2021-07-18 13:02:57 GMT 55.074966 -3.307935 20,550 331 401 -2240
2021-07-18 13:02:54 GMT 55.069565 -3.302603 20,675 331 402 -2240
2021-07-18 13:02:52 GMT 55.065571 -3.298645 20,825 331 403 -2240
2021-07-18 13:02:49 GMT 55.060638 -3.293717 20,925 331 403 -2240
2021-07-18 13:02:46 GMT 55.055511 -3.288628 21,050 331 405 -2176
2021-07-18 13:02:43 GMT 55.052032 -3.285235 21,075 331 405 -2176
2021-07-18 13:02:41 GMT 55.048599 -3.281762 21,325 331 406 -2048
2021-07-18 13:02:38 GMT 55.042694 -3.275865 21,275 331 406 -2112
2021-07-18 13:02:35 GMT 55.037872 -3.271013 21,400 331 406 -2048
2021-07-18 13:02:32 GMT 55.034008 -3.267184 21,525 331 407 -1984
2021-07-18 13:02:29 GMT 55.028515 -3.261691 21,600 331 407 -1984
2021-07-18 13:02:26 GMT 55.023422 -3.256719 21,675 331 408 -1920
2021-07-18 13:02:24 GMT 55.019951 -3.253202 21,775 331 410 -1984
2021-07-18 13:02:21 GMT 55.015480 -3.248790 21,825 331 410 -2048
2021-07-18 13:02:18 GMT 55.009872 -3.243309 21,950 331 412 -2176
2021-07-18 13:02:15 GMT 55.005295 -3.238786 22,025 331 412 -2176
2021-07-18 13:02:12 GMT 55.000305 -3.233809 22,175 331 412 -2176
2021-07-18 13:02:09 GMT 54.995178 -3.228769 22,275 331 414 -2176
2021-07-18 13:02:06 GMT 54.990063 -3.223655 22,425 331 416 -2176
2021-07-18 13:02:03 GMT 54.985016 -3.218671 22,600 331 417 -2240
2021-07-18 13:02:01 GMT 54.982521 -3.216248 22,575 331 417 -2240
2021-07-18 13:01:58 GMT 54.976795 -3.210588 22,675 331 418 -2240
2021-07-18 13:01:55 GMT 54.969486 -3.203347 22,850 331 418 -2240
2021-07-18 13:01:53 GMT 54.969486 -3.203347 22,975 331 419 -2240
2021-07-18 13:01:51 GMT 54.960224 -3.194192 22,975 331 420 -2176
2021-07-18 13:01:48 GMT 54.960224 -3.194192 23,400 331 421 -2048
2021-07-18 13:01:45 GMT 54.948624 -3.182804 23,200 331 420 -2112
2021-07-18 13:01:42 GMT 54.943790 -3.178045 23,325 331 425 -2176
2021-07-18 13:01:39 GMT 54.943790 -3.178045 23,400 331 421 -2048
2021-07-18 13:01:36 GMT 54.933609 -3.167940 23,500 331 423 -2112
2021-07-18 13:01:33 GMT 54.933609 -3.167940 23,650 331 423 -2112
2021-07-18 13:01:30 GMT 54.929489 -3.163901 23,750 331 425 -2176
2021-07-18 13:01:27 GMT 54.923309 -3.157820 23,825 331 425 -2176
2021-07-18 13:01:24 GMT 54.919956 -3.154491 23,900 331 426 -2240
2021-07-18 13:01:22 GMT 54.915482 -3.150087 24,000 331 426 -2240
2021-07-18 13:01:20 GMT 54.912048 -3.146694 24,100 331 427 -2304
2021-07-18 13:01:17 GMT 54.908386 -3.143059 24,150 331 428 -2304
2021-07-18 13:01:14 GMT 54.902920 -3.137762 24,350 331 429 -2368
2021-07-18 13:01:11 GMT 54.898773 -3.133600 24,450 331 429 -2368
2021-07-18 13:01:09 GMT 54.893600 -3.128518 24,525 331 429 -2304
2021-07-18 13:01:07 GMT 54.891083 -3.126014 24,550 331 429 -2304
2021-07-18 13:01:04 GMT 54.885834 -3.120783 24,650 331 429 -2304
2021-07-18 13:01:02 GMT 54.883133 -3.118120 24,725 331 430 -2240
2021-07-18 13:01:00 GMT 54.878952 -3.113978 24,875 331 430 -2176
2021-07-18 13:00:57 GMT 54.873825 -3.108889 24,950 331 430 -2112
2021-07-18 13:00:55 GMT 54.869431 -3.104526 25,025 331 430 -2112
2021-07-18 13:00:53 GMT 54.866684 -3.101780 25,075 331 431 -2112
2021-07-18 13:00:51 GMT 54.864120 -3.099275 25,100 331 431 -2112
2021-07-18 13:00:49 GMT 54.858582 -3.093782 25,250 331 432 -2176
2021-07-18 13:00:46 GMT 54.855991 -3.091236 25,475 331 432 -2176
2021-07-18 13:00:44 GMT 54.847660 -3.083080 25,475 331 433 -2240
2021-07-18 13:00:42 GMT 54.847660 -3.083080 25,475 331 432 -2304
2021-07-18 13:00:40 GMT 54.843521 -3.079080 25,625 332 435 -2368
2021-07-18 13:00:37 GMT 54.838943 -3.074718 25,700 332 435 -2368
2021-07-18 13:00:34 GMT 54.832993 -3.069063 25,800 332 435 -2432
2021-07-18 13:00:32 GMT 54.830338 -3.066559 25,850 332 436 -2496
2021-07-18 13:00:30 GMT 54.825130 -3.061690 26,025 332 438 -2560
2021-07-18 13:00:27 GMT 54.820103 -3.056946 26,375 332 438 -2816
2021-07-18 13:00:24 GMT 54.815540 -3.052701 26,225 332 438 -2816
2021-07-18 13:00:22 GMT 54.811386 -3.048787 26,325 332 438 -2816
2021-07-18 13:00:20 GMT 54.807812 -3.045460 26,650 332 438 -2816
2021-07-18 13:00:17 GMT 54.803009 -3.040870 26,600 332 438 -2816
2021-07-18 13:00:14 GMT 54.794216 -3.032726 26,750 332 438 -2752
2021-07-18 13:00:12 GMT 54.794216 -3.032726 26,800 332 438 -2752
2021-07-18 13:00:10 GMT 54.790558 -3.029238 27,075 332 440 -2816
2021-07-18 13:00:07 GMT 54.785561 -3.024569 27,000 332 440 -2816
2021-07-18 13:00:04 GMT 54.779415 -3.018827 27,150 332 440 -2880
2021-07-18 13:00:02 GMT 54.776947 -3.016496 27,250 332 440 -2880
2021-07-18 13:00:00 GMT 54.772614 -3.012435 27,350 332 440 -2752
2021-07-18 12:59:57 GMT 54.766052 -3.006259 27,525 332 438 -2432
2021-07-18 12:59:54 GMT 54.761444 -3.002014 27,625 332 438 -2432
2021-07-18 12:59:52 GMT 54.758698 -2.999429 27,725 332 438 -1728
2021-07-18 12:59:50 GMT 54.750000 -2.991270 27,800 332 438 -1728
2021-07-18 12:59:47 GMT 54.750000 -2.991270 27,825 332 438 -1600
2021-07-18 12:59:44 GMT 54.743500 -2.985212 27,925 332 438 -1408
2021-07-18 12:59:42 GMT 54.740707 -2.982546 27,975 332 438 -1344
2021-07-18 12:59:40 GMT 54.732117 -2.974548 28,050 332 438 -1152
2021-07-18 12:59:37 GMT 54.732117 -2.974548 28,050 332 438 -1024
2021-07-18 12:59:34 GMT 54.722061 -2.965060 28,275 332 439 -1088
2021-07-18 12:59:32 GMT 54.722061 -2.965060 28,275 332 439 -1088
2021-07-18 12:59:30 GMT 54.719238 -2.962431 28,175 332 439 -1088
2021-07-18 12:59:27 GMT 54.712875 -2.956534 28,275 332 441 -1088
2021-07-18 12:59:24 GMT 54.707912 -2.951827 28,300 332 441 -1024
2021-07-18 12:59:21 GMT 54.703400 -2.947648 28,375 332 442 -1024
2021-07-18 12:59:18 GMT 54.694519 -2.939408 28,400 332 442 -1024
2021-07-18 12:59:16 GMT 54.694519 -2.939408 28,600 332 442 -960
2021-07-18 12:59:13 GMT 54.689617 -2.934848 28,475 332 442 -960
2021-07-18 12:59:11 GMT 54.679840 -2.925776 28,525 332 442 -896
2021-07-18 12:59:08 GMT 54.679840 -2.925776 28,550 332 442 -896
2021-07-18 12:59:06 GMT 54.676441 -2.922613 28,725 332 441 -896
2021-07-18 12:59:03 GMT 54.672020 -2.918535 28,625 332 442 -896
2021-07-18 12:59:01 GMT 54.667736 -2.914540 28,650 332 442 -896
2021-07-18 12:58:59 GMT 54.662521 -2.909681 28,700 332 441 -896
2021-07-18 12:58:56 GMT 54.658798 -2.906300 28,775 332 441 -960
2021-07-18 12:58:53 GMT 54.653305 -2.901223 28,775 332 441 -960
2021-07-18 12:58:51 GMT 54.649612 -2.897806 28,825 332 441 -960
2021-07-18 12:58:49 GMT 54.646835 -2.895147 28,825 332 441 -960
2021-07-18 12:58:47 GMT 54.641922 -2.890616 28,875 332 441 -1024
2021-07-18 12:58:45 GMT 54.638260 -2.887223 28,925 332 441 -1024
2021-07-18 12:58:42 GMT 54.632355 -2.881747 28,975 332 442 -1024
2021-07-18 12:58:39 GMT 54.628773 -2.878418 29,000 332 442 -1024
2021-07-18 12:58:37 GMT 54.617889 -2.868320 29,075 332 442 -1024
2021-07-18 12:58:34 GMT 54.612167 -2.863069 29,125 332 441 -1024
2021-07-18 12:58:31 GMT 54.612167 -2.863069 29,150 332 441 -1024
2021-07-18 12:58:28 GMT 54.607361 -2.858546 29,200 332 441 -1024
2021-07-18 12:58:26 GMT 54.604656 -2.856112 29,250 332 441 -1024
2021-07-18 12:58:23 GMT 54.599117 -2.850952 29,300 332 441 -1024
2021-07-18 12:58:21 GMT 54.589828 -2.842308 29,325 332 440 -1024
2021-07-18 12:58:18 GMT 54.589828 -2.842308 29,350 332 440 -1024
2021-07-18 12:58:16 GMT 54.586258 -2.839077 29,400 332 440 -1024
2021-07-18 12:58:13 GMT 54.581707 -2.834806 29,475 332 440 -1024
2021-07-18 12:58:11 GMT 54.577286 -2.830727 29,500 332 440 -1024
2021-07-18 12:58:09 GMT 54.573029 -2.826798 29,575 332 440 -1024
2021-07-18 12:58:06 GMT 54.563366 -2.817827 29,650 332 439 -960
2021-07-18 12:58:03 GMT 54.563366 -2.817827 29,625 332 439 -960
2021-07-18 12:58:01 GMT 54.558662 -2.813499 29,675 332 439 -960
2021-07-18 12:57:58 GMT 54.552017 -2.807330 29,750 332 439 -1024
2021-07-18 12:57:53 GMT 54.545288 -2.801110 29,800 332 439 -1024
2021-07-18 12:57:51 GMT 54.541348 -2.797435 29,825 332 439 -1024
2021-07-18 12:57:48 GMT 54.536865 -2.793355 29,875 332 439 -1024
2021-07-18 12:57:46 GMT 54.532516 -2.789316 29,900 332 439 -1024
2021-07-18 12:57:43 GMT 54.528267 -2.785367 30,000 332 440 -960
2021-07-18 12:57:41 GMT 54.522949 -2.780430 30,025 332 440 -960
2021-07-18 12:57:38 GMT 54.517502 -2.775421 30,050 332 440 -1024
2021-07-18 12:57:36 GMT 54.515762 -2.773886 30,050 332 440 -1024
2021-07-18 12:57:33 GMT 54.510483 -2.768971 30,150 332 439 -960
2021-07-18 12:57:31 GMT 54.505829 -2.764677 30,150 332 439 -960
2021-07-18 12:57:28 GMT 54.501022 -2.760315 30,200 332 439 -960
2021-07-18 12:57:26 GMT 54.497356 -2.756986 30,225 332 439 -960
2021-07-18 12:57:23 GMT 54.486786 -2.747228 30,350 332 439 -960
2021-07-18 12:57:21 GMT 54.486786 -2.747228 30,350 332 439 -960
2021-07-18 12:57:18 GMT 54.482483 -2.743270 30,375 332 438 -960
2021-07-18 12:57:16 GMT 54.479004 -2.740119 30,450 332 439 -896
2021-07-18 12:57:13 GMT 54.473511 -2.735030 30,850 332 436 -1024
2021-07-18 12:57:11 GMT 54.464355 -2.726629 30,500 332 439 -896
2021-07-18 12:57:08 GMT 54.464355 -2.726629 30,525 332 439 -896
2021-07-18 12:57:06 GMT 54.459785 -2.722362 30,575 332 438 -960
2021-07-18 12:57:03 GMT 54.455063 -2.718066 30,600 332 438 -960
2021-07-18 12:57:00 GMT 54.449615 -2.713058 30,650 332 438 -960
2021-07-18 12:56:57 GMT 54.444901 -2.708695 30,700 332 438 -1024
2021-07-18 12:56:55 GMT 54.435242 -2.699809 30,750 332 438 -1024
2021-07-18 12:56:52 GMT 54.435242 -2.699809 30,775 332 436 -1024
2021-07-18 12:56:50 GMT 54.433594 -2.698275 30,850 332 436 -1024
2021-07-18 12:56:48 GMT 54.425858 -2.691246 30,875 332 436 -1024
2021-07-18 12:56:46 GMT 54.419613 -2.685491 30,900 332 436 -1024
2021-07-18 12:56:43 GMT 54.419613 -2.685491 30,950 332 436 -1024
2021-07-18 12:56:40 GMT 54.414352 -2.680664 31,000 332 435 -1024
2021-07-18 12:56:37 GMT 54.409103 -2.675898 31,050 332 435 -1024
2021-07-18 12:56:35 GMT 54.406540 -2.673555 31,100 332 435 -1024
2021-07-18 12:56:32 GMT 54.401272 -2.668762 31,125 332 435 -1024
2021-07-18 12:56:29 GMT 54.389492 -2.657942 31,200 332 434 -960
2021-07-18 12:56:26 GMT 54.389492 -2.657942 31,250 332 434 -960
2021-07-18 12:56:23 GMT 54.384186 -2.653115 31,275 332 434 -960
2021-07-18 12:56:21 GMT 54.380695 -2.649869 31,300 332 434 -896
2021-07-18 12:56:19 GMT 54.377930 -2.647382 31,375 332 433 -896
2021-07-18 12:56:16 GMT 54.371521 -2.641485 31,400 332 433 -896
2021-07-18 12:56:13 GMT 54.368263 -2.638467 31,400 332 433 -896
2021-07-18 12:56:10 GMT 54.357422 -2.628560 31,500 332 433 -896
2021-07-18 12:56:07 GMT 54.357422 -2.628560 31,525 332 433 -896
2021-07-18 12:56:05 GMT 54.352020 -2.623652 31,575 332 433 -896
2021-07-18 12:56:02 GMT 54.348816 -2.620724 31,600 332 433 -896
2021-07-18 12:56:00 GMT 54.343964 -2.616281 31,625 332 433 -896
2021-07-18 12:55:57 GMT 54.339386 -2.612080 31,675 332 433 -896
2021-07-18 12:55:55 GMT 54.335075 -2.608171 31,725 332 433 -960
2021-07-18 12:55:52 GMT 54.330551 -2.604002 31,725 332 433 -960
2021-07-18 12:55:50 GMT 54.326157 -2.599963 31,775 332 433 -960
2021-07-18 12:55:47 GMT 54.317524 -2.592108 31,875 332 436 -768
2021-07-18 12:55:45 GMT 54.317524 -2.592108 31,850 332 435 -960
2021-07-18 12:55:42 GMT 54.312469 -2.587523 31,875 332 435 -896
2021-07-18 12:55:40 GMT 54.308624 -2.583968 31,925 332 436 -832
2021-07-18 12:55:37 GMT 54.303928 -2.579706 31,950 332 436 -704
2021-07-18 12:55:35 GMT 54.299553 -2.575711 32,000 332 436 -384
2021-07-18 12:55:32 GMT 54.294800 -2.571447 32,000 333 437 0
2021-07-18 12:55:30 GMT 54.290524 -2.567555 32,000 333 437 0
2021-07-18 12:55:27 GMT 54.286335 -2.563726 32,000 333 437 0
2021-07-18 12:55:25 GMT 54.282982 -2.560647 32,000 333 437 0
2021-07-18 12:55:22 GMT 54.276901 -2.555185 32,000 333 437 0
2021-07-18 12:55:19 GMT 54.272602 -2.551252 32,000 333 437 0
2021-07-18 12:55:17 GMT 54.268227 -2.547293 32,000 333 437 0
2021-07-18 12:55:15 GMT 54.263580 -2.543100 32,000 333 437 0
2021-07-18 12:55:12 GMT 54.255005 -2.535257 32,000 333 437 0
2021-07-18 12:55:09 GMT 54.255005 -2.535257 32,000 333 437 0
2021-07-18 12:55:07 GMT 54.249939 -2.530701 32,000 333 437 0
2021-07-18 12:55:05 GMT 54.245556 -2.526694 32,000 332 437 0
2021-07-18 12:55:02 GMT 54.241104 -2.522618 32,000 332 437 0
2021-07-18 12:54:59 GMT 54.236526 -2.518537 32,000 332 437 0
2021-07-18 12:54:57 GMT 54.232800 -2.515061 32,000 332 437 0
2021-07-18 12:54:55 GMT 54.228699 -2.511396 32,000 332 437 0
2021-07-18 12:54:52 GMT 54.219040 -2.502607 32,000 333 437 0
2021-07-18 12:54:50 GMT 54.219040 -2.502607 32,000 333 437 0
2021-07-18 12:54:48 GMT 54.215481 -2.499390 32,000 332 438 0
2021-07-18 12:54:45 GMT 54.210114 -2.494524 32,025 332 438 0
2021-07-18 12:54:42 GMT 54.205078 -2.489973 32,025 332 438 0
2021-07-18 12:54:40 GMT 54.203201 -2.488246 32,025 332 438 0
2021-07-18 12:54:38 GMT 54.192577 -2.478629 32,025 333 437 0
2021-07-18 12:54:35 GMT 54.192577 -2.478629 32,000 332 438 0
2021-07-18 12:54:32 GMT 54.187363 -2.473943 32,000 333 437 64
2021-07-18 12:54:29 GMT 54.182613 -2.469581 32,000 333 437 0
2021-07-18 12:54:26 GMT 54.178192 -2.465623 32,000 333 437 0
2021-07-18 12:54:24 GMT 54.172348 -2.460310 32,000 333 437 0
2021-07-18 12:54:21 GMT 54.169556 -2.457799 32,000 333 437 0
2021-07-18 12:54:19 GMT 54.164932 -2.453639 32,000 333 437 0
2021-07-18 12:54:16 GMT 54.158661 -2.447989 32,000 333 437 0
2021-07-18 12:54:14 GMT 54.155090 -2.444772 32,000 333 437 0
2021-07-18 12:54:11 GMT 54.151062 -2.441084 32,000 333 437 0
2021-07-18 12:54:09 GMT 54.147469 -2.437915 32,000 333 437 0
2021-07-18 12:54:07 GMT 54.142410 -2.433315 32,000 333 437 64
2021-07-18 12:54:04 GMT 54.132992 -2.424828 32,000 333 437 64
2021-07-18 12:54:01 GMT 54.132992 -2.424828 32,000 333 437 64
2021-07-18 12:53:59 GMT 54.128845 -2.421112 32,000 333 437 64
2021-07-18 12:53:57 GMT 54.124332 -2.416992 32,000 333 437 64
2021-07-18 12:53:54 GMT 54.118607 -2.411813 32,000 333 437 64
2021-07-18 12:53:51 GMT 54.114834 -2.408429 32,000 333 437 64
2021-07-18 12:53:49 GMT 54.107433 -2.401805 32,000 333 437 0
2021-07-18 12:53:47 GMT 54.107433 -2.401805 32,000 333 437 64
2021-07-18 12:53:44 GMT 54.101578 -2.396511 32,000 333 437 64
2021-07-18 12:53:41 GMT 54.097099 -2.392435 32,000 333 437 64
2021-07-18 12:53:39 GMT 54.089081 -2.385210 32,000 333 437 64
2021-07-18 12:53:37 GMT 54.083588 -2.380266 32,000 333 437 64
2021-07-18 12:53:34 GMT 54.083588 -2.380266 32,000 333 437 64
2021-07-18 12:53:31 GMT 54.075394 -2.372890 32,000 333 438 64
2021-07-18 12:53:29 GMT 54.075394 -2.372890 32,000 333 438 64
2021-07-18 12:53:26 GMT 54.069355 -2.367473 31,975 333 438 64
2021-07-18 12:53:23 GMT 54.062046 -2.360849 31,975 333 438 0
2021-07-18 12:53:21 GMT 54.062046 -2.360849 31,975 333 438 0
2021-07-18 12:53:19 GMT 54.057388 -2.356648 31,975 333 438 0
2021-07-18 12:53:16 GMT 54.051270 -2.351231 31,975 333 438 0
2021-07-18 12:53:13 GMT 54.047791 -2.348014 31,975 333 438 -64
2021-07-18 12:53:11 GMT 54.043854 -2.344561 31,975 333 438 -64
2021-07-18 12:53:09 GMT 54.039143 -2.340330 31,975 333 438 -64
2021-07-18 12:53:06 GMT 54.033787 -2.335483 31,975 333 438 -64
2021-07-18 12:53:03 GMT 54.025082 -2.327728 31,975 333 438 0
2021-07-18 12:53:01 GMT 54.025082 -2.327728 31,975 333 438 0
2021-07-18 12:52:59 GMT 54.021404 -2.324416 31,975 333 438 0
2021-07-18 12:52:56 GMT 54.011765 -2.315839 31,975 333 438 0
2021-07-18 12:52:53 GMT 54.011765 -2.315839 31,975 333 438 0
2021-07-18 12:52:51 GMT 54.006882 -2.311410 31,975 333 438 0
2021-07-18 12:52:48 GMT 54.000641 -2.305873 31,975 333 438 0
2021-07-18 12:52:45 GMT 53.996639 -2.302282 31,975 333 438 0
2021-07-18 12:52:42 GMT 53.992077 -2.298162 31,975 333 437 0
2021-07-18 12:52:39 GMT 53.985306 -2.292140 31,975 333 437 64
2021-07-18 12:52:37 GMT 53.975830 -2.283621 31,975 333 437 64
2021-07-18 12:52:34 GMT 53.975830 -2.283621 31,975 333 437 0
2021-07-18 12:52:31 GMT 53.970615 -2.279017 31,975 333 437 0
2021-07-18 12:52:28 GMT 53.967079 -2.275866 31,975 333 437 0
2021-07-18 12:52:26 GMT 53.961632 -2.270939 31,975 333 437 0
2021-07-18 12:52:23 GMT 53.957722 -2.267465 31,975 333 437 0
2021-07-18 12:52:21 GMT 53.953205 -2.263426 31,975 333 437 0
2021-07-18 12:52:18 GMT 53.949436 -2.260033 31,975 333 437 0
2021-07-18 12:52:16 GMT 53.944473 -2.255572 31,975 333 437 0
2021-07-18 12:52:13 GMT 53.939194 -2.250905 31,975 333 437 0
2021-07-18 12:52:11 GMT 53.934490 -2.246704 31,975 333 437 0
2021-07-18 12:52:08 GMT 53.931015 -2.243565 31,975 333 437 0
2021-07-18 12:52:05 GMT 53.925880 -2.239030 31,975 333 437 0
2021-07-18 12:52:03 GMT 53.921310 -2.234933 31,975 333 437 0
2021-07-18 12:52:01 GMT 53.911606 -2.226301 31,975 333 437 -64
2021-07-18 12:51:58 GMT 53.911606 -2.226301 31,975 333 437 -64
2021-07-18 12:51:55 GMT 53.908329 -2.223358 31,975 333 437 -64
2021-07-18 12:51:53 GMT 53.903721 -2.219238 31,975 333 437 -64
2021-07-18 12:51:51 GMT 53.900024 -2.215942 32,000 333 436 -64
2021-07-18 12:51:49 GMT 53.889359 -2.206447 32,000 333 436 -64
2021-07-18 12:51:46 GMT 53.889359 -2.206447 32,000 333 436 -64
2021-07-18 12:51:43 GMT 53.885426 -2.202920 32,000 333 436 -64
2021-07-18 12:51:41 GMT 53.880295 -2.198364 32,000 333 436 0
2021-07-18 12:51:38 GMT 53.874939 -2.193577 32,000 333 436 0
2021-07-18 12:51:35 GMT 53.872421 -2.191380 32,000 333 436 0
2021-07-18 12:51:33 GMT 53.867828 -2.187249 32,000 333 436 0
2021-07-18 12:51:30 GMT 53.864151 -2.184017 32,000 333 436 0
2021-07-18 12:51:28 GMT 53.858505 -2.178903 32,000 333 436 0
2021-07-18 12:51:25 GMT 53.854202 -2.175136 32,000 333 436 0
2021-07-18 12:51:22 GMT 53.847977 -2.169564 32,000 333 436 -64
2021-07-18 12:51:20 GMT 53.846054 -2.167838 32,000 333 436 -64
2021-07-18 12:51:18 GMT 53.841385 -2.163757 32,000 333 436 -64
2021-07-18 12:51:16 GMT 53.836639 -2.159541 32,000 333 436 -64
2021-07-18 12:51:13 GMT 53.831360 -2.154811 32,000 333 436 -64
2021-07-18 12:51:10 GMT 53.825886 -2.150008 32,000 333 436 -64
2021-07-18 12:51:07 GMT 53.822254 -2.146696 32,000 333 436 -64
2021-07-18 12:51:05 GMT 53.813969 -2.139345 32,025 333 436 -64
2021-07-18 12:51:02 GMT 53.813969 -2.139345 32,025 333 436 -64
2021-07-18 12:51:00 GMT 53.809544 -2.135468 32,025 333 436 -64
2021-07-18 12:50:58 GMT 53.805683 -2.131994 32,025 333 436 0
2021-07-18 12:50:56 GMT 53.802608 -2.129328 32,025 333 436 0
2021-07-18 12:50:53 GMT 53.796974 -2.124320 32,025 333 436 0
2021-07-18 12:50:50 GMT 53.789948 -2.118099 32,025 333 436 0
2021-07-18 12:50:47 GMT 53.780869 -2.109940 32,025 333 436 0
2021-07-18 12:50:44 GMT 53.780869 -2.109940 32,025 333 437 0
2021-07-18 12:50:41 GMT 53.775421 -2.105174 32,025 333 437 0
2021-07-18 12:50:38 GMT 53.769279 -2.099681 32,025 333 437 0
2021-07-18 12:50:36 GMT 53.764900 -2.095804 32,025 333 437 0
2021-07-18 12:50:33 GMT 53.760525 -2.091926 32,025 333 437 0
2021-07-18 12:50:30 GMT 53.755920 -2.087873 32,025 333 437 0
2021-07-18 12:50:28 GMT 53.751343 -2.083871 32,025 333 437 0
2021-07-18 12:50:26 GMT 53.747864 -2.080732 32,025 333 437 0
2021-07-18 12:50:23 GMT 53.741673 -2.075285 32,025 333 437 0
2021-07-18 12:50:20 GMT 53.737808 -2.071892 32,025 333 437 0
2021-07-18 12:50:18 GMT 53.733570 -2.068176 32,025 333 437 0
2021-07-18 12:50:16 GMT 53.723602 -2.059387 32,025 333 437 0
2021-07-18 12:50:13 GMT 53.723602 -2.059387 32,025 333 437 0
2021-07-18 12:50:10 GMT 53.719208 -2.055542 32,025 333 437 0
2021-07-18 12:50:07 GMT 53.713413 -2.050404 32,025 333 437 0
2021-07-18 12:50:04 GMT 53.709045 -2.046518 32,025 333 437 0
2021-07-18 12:50:01 GMT 53.703552 -2.041731 32,025 333 437 0
2021-07-18 12:49:59 GMT 53.698242 -2.037022 32,025 333 437 0
2021-07-18 12:49:56 GMT 53.693211 -2.032551 32,025 333 437 0
2021-07-18 12:49:53 GMT 53.689774 -2.029567 32,025 333 437 0
2021-07-18 12:49:51 GMT 53.685532 -2.025847 32,025 333 437 0
2021-07-18 12:49:49 GMT 53.681339 -2.022131 32,025 333 437 0
2021-07-18 12:49:46 GMT 53.673332 -2.015103 32,025 333 437 64
2021-07-18 12:49:43 GMT 53.671284 -2.013325 32,025 333 437 0
2021-07-18 12:49:41 GMT 53.667572 -2.010027 32,025 333 437 64
2021-07-18 12:49:38 GMT 53.662262 -2.005397 32,025 333 437 64
2021-07-18 12:49:35 GMT 53.656311 -2.000140 32,025 333 437 64
2021-07-18 12:49:32 GMT 53.651455 -1.995796 32,025 333 438 64
2021-07-18 12:49:30 GMT 53.647778 -1.992645 32,025 333 438 64
2021-07-18 12:49:28 GMT 53.644146 -1.989414 32,025 333 438 64
2021-07-18 12:49:26 GMT 53.640656 -1.986328 32,000 333 438 64
2021-07-18 12:49:23 GMT 53.635162 -1.981497 32,000 333 438 64
2021-07-18 12:49:21 GMT 53.632462 -1.979187 32,000 333 438 64
2021-07-18 12:49:18 GMT 53.625198 -1.972773 32,000 333 438 64
2021-07-18 12:49:15 GMT 53.619705 -1.968007 32,000 333 438 64
2021-07-18 12:49:12 GMT 53.614288 -1.963257 32,000 333 438 0
2021-07-18 12:49:09 GMT 53.610489 -1.959848 32,000 333 438 0
2021-07-18 12:49:07 GMT 53.607834 -1.957505 32,000 333 438 0
2021-07-18 12:49:05 GMT 53.603851 -1.954075 32,000 333 438 0
2021-07-18 12:49:02 GMT 53.596569 -1.947650 32,000 333 439 0
2021-07-18 12:48:59 GMT 53.592270 -1.943874 32,000 333 438 0
2021-07-18 12:48:57 GMT 53.589725 -1.941591 32,000 333 437 0
2021-07-18 12:48:55 GMT 53.584045 -1.936583 32,000 333 438 0
2021-07-18 12:48:52 GMT 53.578629 -1.931867 32,000 333 438 0
2021-07-18 12:48:49 GMT 53.574554 -1.928258 32,000 333 438 0
2021-07-18 12:48:47 GMT 53.571350 -1.925432 32,000 333 437 0
2021-07-18 12:48:44 GMT 53.564354 -1.919376 32,000 333 437 0
2021-07-18 12:48:41 GMT 53.558853 -1.914525 32,000 333 437 0
2021-07-18 12:48:38 GMT 53.553181 -1.909521 32,000 333 437 0
2021-07-18 12:48:35 GMT 53.542557 -1.900321 32,000 333 437 0
2021-07-18 12:48:32 GMT 53.542557 -1.900321 32,000 333 437 0
2021-07-18 12:48:29 GMT 53.538704 -1.896919 32,000 333 437 0
2021-07-18 12:48:27 GMT 53.535004 -1.893729 32,000 333 437 0
2021-07-18 12:48:25 GMT 53.529720 -1.889083 32,000 333 437 0
2021-07-18 12:48:22 GMT 53.526123 -1.885960 32,000 333 437 -64
2021-07-18 12:48:19 GMT 53.520721 -1.881252 32,000 333 437 0
2021-07-18 12:48:17 GMT 53.516968 -1.877956 32,000 333 436 0
2021-07-18 12:48:15 GMT 53.514313 -1.875680 32,000 333 437 0
2021-07-18 12:48:12 GMT 53.507675 -1.869873 32,000 333 436 0
2021-07-18 12:48:09 GMT 53.502674 -1.865495 32,000 333 436 0
2021-07-18 12:48:07 GMT 53.499207 -1.862497 32,000 333 436 0
2021-07-18 12:48:05 GMT 53.496670 -1.860244 32,000 333 436 0
2021-07-18 12:48:02 GMT 53.490509 -1.854885 32,000 333 436 0
2021-07-18 12:47:59 GMT 53.485199 -1.850255 32,000 333 436 0
2021-07-18 12:47:57 GMT 53.477097 -1.843192 32,000 333 436 0
2021-07-18 12:47:55 GMT 53.477097 -1.843192 32,000 333 436 0
2021-07-18 12:47:52 GMT 53.472702 -1.839425 32,000 333 436 0
2021-07-18 12:47:49 GMT 53.467155 -1.834555 32,000 333 436 0
2021-07-18 12:47:47 GMT 53.463638 -1.831499 32,000 333 435 0
2021-07-18 12:47:44 GMT 53.459007 -1.827446 32,000 333 436 0
2021-07-18 12:47:41 GMT 53.452835 -1.822083 32,000 333 435 0
2021-07-18 12:47:38 GMT 53.447159 -1.817217 32,000 333 435 0
2021-07-18 12:47:35 GMT 53.441757 -1.812509 32,000 333 435 0
2021-07-18 12:47:32 GMT 53.437359 -1.808624 32,000 333 434 0
2021-07-18 12:47:29 GMT 53.431274 -1.803327 32,000 333 434 0
2021-07-18 12:47:27 GMT 53.424637 -1.797599 32,000 333 434 0
2021-07-18 12:47:25 GMT 53.424637 -1.797599 32,000 333 433 0
2021-07-18 12:47:22 GMT 53.418777 -1.792498 32,000 333 433 0
2021-07-18 12:47:19 GMT 53.413433 -1.787863 32,000 333 433 0
2021-07-18 12:47:16 GMT 53.409801 -1.784713 32,000 333 433 0
2021-07-18 12:47:14 GMT 53.404495 -1.780108 32,000 333 433 0
2021-07-18 12:47:11 GMT 53.399231 -1.775548 32,000 333 433 0
2021-07-18 12:47:08 GMT 53.395370 -1.772192 32,000 333 433 0
2021-07-18 12:47:06 GMT 53.387875 -1.765729 32,000 333 433 0
2021-07-18 12:47:04 GMT 53.387875 -1.765729 32,000 333 432 0
2021-07-18 12:47:01 GMT 53.382294 -1.760873 32,000 333 432 0
2021-07-18 12:46:58 GMT 53.377075 -1.756321 32,000 333 432 0
2021-07-18 12:46:56 GMT 53.373642 -1.753339 32,000 333 432 0
2021-07-18 12:46:54 GMT 53.369999 -1.750219 32,000 333 432 0
2021-07-18 12:46:51 GMT 53.361622 -1.742868 32,000 333 432 0
2021-07-18 12:46:48 GMT 53.359802 -1.741333 32,000 333 432 0
2021-07-18 12:46:46 GMT 53.352215 -1.734790 32,000 333 432 0
2021-07-18 12:46:41 GMT 53.342102 -1.725952 32,000 333 431 0
2021-07-18 12:46:38 GMT 53.342102 -1.725952 32,000 333 431 0
2021-07-18 12:46:36 GMT 53.337662 -1.722185 32,000 333 431 0
2021-07-18 12:46:34 GMT 53.332947 -1.718105 32,000 333 431 0
2021-07-18 12:46:31 GMT 53.328663 -1.714352 32,000 333 431 0
2021-07-18 12:46:28 GMT 53.323494 -1.709909 32,000 333 430 -64
2021-07-18 12:46:26 GMT 53.320221 -1.707118 32,000 333 430 -64
2021-07-18 12:46:24 GMT 53.315163 -1.702719 32,000 333 430 -64
2021-07-18 12:46:21 GMT 53.310318 -1.698519 32,025 333 430 -64
2021-07-18 12:46:18 GMT 53.301102 -1.690521 32,025 333 430 -64
2021-07-18 12:46:15 GMT 53.298077 -1.687936 32,025 333 429 -64
2021-07-18 12:46:13 GMT 53.298077 -1.687936 32,000 333 429 64
2021-07-18 12:46:10 GMT 53.292480 -1.683105 32,025 333 429 0
2021-07-18 12:46:08 GMT 53.288773 -1.679967 32,025 333 429 64
2021-07-18 12:46:06 GMT 53.285179 -1.676869 32,000 333 430 64
2021-07-18 12:46:04 GMT 53.279736 -1.672184 31,975 333 430 128
2021-07-18 12:46:01 GMT 53.270187 -1.663958 32,000 333 430 192
2021-07-18 12:45:58 GMT 53.270187 -1.663958 31,975 333 432 256
2021-07-18 12:45:56 GMT 53.261253 -1.656270 31,950 333 432 320
2021-07-18 12:45:53 GMT 53.255016 -1.650938 31,925 333 433 384
2021-07-18 12:45:50 GMT 53.255016 -1.650938 31,925 333 434 576
2021-07-18 12:45:47 GMT 53.251198 -1.647626 31,900 333 434 640
2021-07-18 12:45:45 GMT 53.247757 -1.644653 31,875 333 435 1024
2021-07-18 12:45:42 GMT 53.240341 -1.638297 31,825 333 435 1472
2021-07-18 12:45:39 GMT 53.232056 -1.631156 31,775 333 435 1344
2021-07-18 12:45:37 GMT 53.232056 -1.631156 31,675 333 435 1536
2021-07-18 12:45:34 GMT 53.221592 -1.622180 31,600 333 436 1472
2021-07-18 12:45:31 GMT 53.221592 -1.622180 31,575 333 436 1408
2021-07-18 12:45:28 GMT 53.213303 -1.615071 31,425 333 436 1344
2021-07-18 12:45:26 GMT 53.213303 -1.615071 31,450 333 436 1344
2021-07-18 12:45:24 GMT 53.204132 -1.607221 31,400 333 437 1344
2021-07-18 12:45:21 GMT 53.204132 -1.607221 31,350 333 437 1344
2021-07-18 12:45:18 GMT 53.199291 -1.603035 31,275 333 437 1344
2021-07-18 12:45:16 GMT 53.195755 -1.600002 31,250 333 437 1344
2021-07-18 12:45:14 GMT 53.191193 -1.596087 31,175 333 437 1280
2021-07-18 12:45:11 GMT 53.185776 -1.591527 31,125 333 437 1344
2021-07-18 12:45:08 GMT 53.181381 -1.587760 31,075 333 437 1408
2021-07-18 12:45:06 GMT 53.177692 -1.584535 31,025 333 438 1344
2021-07-18 12:45:04 GMT 53.172089 -1.579756 30,025 333 438 1344
2021-07-18 12:45:01 GMT 53.167358 -1.575730 30,900 333 438 1344
2021-07-18 12:44:58 GMT 53.162750 -1.571751 30,850 333 438 1344
2021-07-18 12:44:56 GMT 53.159164 -1.568702 30,800 333 438 1344
2021-07-18 12:44:54 GMT 53.155518 -1.565552 30,750 333 439 1280
2021-07-18 12:44:52 GMT 53.152771 -1.563198 30,675 333 439 1280
2021-07-18 12:44:49 GMT 53.147141 -1.558411 30,650 333 439 1280
2021-07-18 12:44:47 GMT 53.143570 -1.555350 30,575 333 439 1280
2021-07-18 12:44:44 GMT 53.138077 -1.550642 30,525 333 439 1280
2021-07-18 12:44:41 GMT 53.132721 -1.546083 30,475 333 439 1280
2021-07-18 12:44:38 GMT 53.127228 -1.541398 30,425 333 439 1344
2021-07-18 12:44:36 GMT 53.123505 -1.538248 30,350 333 440 1408
2021-07-18 12:44:33 GMT 53.116150 -1.531887 30,275 333 441 1344
2021-07-18 12:44:30 GMT 53.112007 -1.528392 30,175 333 440 1408
2021-07-18 12:44:27 GMT 53.107361 -1.524432 30,000 333 441 1280
2021-07-18 12:44:25 GMT 53.102829 -1.520508 30,075 333 441 1344
2021-07-18 12:44:22 GMT 53.096741 -1.515407 30,025 333 441 1280
2021-07-18 12:44:19 GMT 53.090080 -1.509678 29,950 333 441 1280
2021-07-18 12:44:17 GMT 53.085617 -1.505890 29,900 333 441 1280
2021-07-18 12:44:15 GMT 53.082539 -1.503244 29,850 333 442 1280
2021-07-18 12:44:13 GMT 53.082539 -1.503244 29,850 333 442 1280
2021-07-18 12:44:11 GMT 53.076580 -1.498221 29,650 333 442 1344
2021-07-18 12:44:08 GMT 53.072296 -1.494522 29,750 333 442 1280
2021-07-18 12:44:05 GMT 53.065933 -1.489105 29,650 333 442 1344
2021-07-18 12:44:02 GMT 53.062382 -1.486136 29,625 333 443 1408
2021-07-18 12:44:00 GMT 53.056332 -1.480957 29,525 333 443 1344
2021-07-18 12:43:57 GMT 53.052654 -1.477897 29,500 333 443 1408
2021-07-18 12:43:55 GMT 53.048092 -1.473973 29,425 333 444 1536
2021-07-18 12:43:52 GMT 53.044365 -1.470834 29,275 334 445 1664
2021-07-18 12:43:49 GMT 53.036865 -1.464462 29,275 333 444 1536
2021-07-18 12:43:46 GMT 53.032288 -1.460648 29,075 334 445 1664
2021-07-18 12:43:43 GMT 53.026630 -1.455845 28,950 334 444 1728
2021-07-18 12:43:40 GMT 53.021988 -1.451950 29,025 334 445 1664
2021-07-18 12:43:37 GMT 53.017227 -1.447998 28,950 334 445 1600
2021-07-18 12:43:35 GMT 53.012878 -1.444321 28,950 334 446 1600
2021-07-18 12:43:33 GMT 53.007019 -1.439438 28,825 333 446 1472
2021-07-18 12:43:30 GMT 53.002213 -1.435394 28,775 333 446 1408
2021-07-18 12:43:27 GMT 52.997910 -1.431732 28,700 333 446 1408
2021-07-18 12:43:25 GMT 52.989063 -1.424142 28,575 333 446 1536
2021-07-18 12:43:23 GMT 52.989063 -1.424142 28,550 333 446 1536
2021-07-18 12:43:20 GMT 52.984268 -1.419983 28,525 333 446 1536
2021-07-18 12:43:17 GMT 52.978775 -1.415196 28,450 332 447 1472
2021-07-18 12:43:15 GMT 52.975983 -1.412735 28,425 332 447 1472
2021-07-18 12:43:13 GMT 52.966507 -1.404343 28,325 332 447 1344
2021-07-18 12:43:10 GMT 52.966507 -1.404343 28,300 332 447 1280
2021-07-18 12:43:07 GMT 52.962013 -1.400364 28,250 332 448 1216
2021-07-18 12:43:05 GMT 52.958130 -1.396942 28,150 332 448 1216
2021-07-18 12:43:03 GMT 52.953030 -1.392439 28,175 332 447 1216
2021-07-18 12:43:00 GMT 52.947235 -1.387329 27,925 332 447 1280
2021-07-18 12:42:57 GMT 52.943619 -1.384125 28,025 332 447 1280
2021-07-18 12:42:55 GMT 52.932316 -1.374154 27,950 332 447 1472
2021-07-18 12:42:52 GMT 52.932316 -1.374154 27,725 332 448 1536
2021-07-18 12:42:49 GMT 52.928871 -1.371172 27,675 332 448 1536
2021-07-18 12:42:46 GMT 52.921143 -1.364288 27,625 332 448 1536
2021-07-18 12:42:43 GMT 52.916199 -1.359940 27,625 332 448 1472
2021-07-18 12:42:40 GMT 52.910568 -1.354980 27,575 332 448 1152
2021-07-18 12:42:37 GMT 52.907269 -1.352103 27,550 332 448 1344
2021-07-18 12:42:35 GMT 52.902290 -1.347709 27,400 332 448 1152
2021-07-18 12:42:32 GMT 52.895920 -1.342163 27,350 332 444 1536
2021-07-18 12:42:29 GMT 52.890652 -1.337507 27,350 333 447 640
2021-07-18 12:42:26 GMT 52.885803 -1.333237 27,350 333 447 640
2021-07-18 12:42:24 GMT 52.883762 -1.331464 27,300 333 447 640
2021-07-18 12:42:22 GMT 52.879898 -1.328090 27,300 333 446 640
2021-07-18 12:42:20 GMT 52.875614 -1.324323 27,275 333 445 1024
2021-07-18 12:42:17 GMT 52.869324 -1.318817 27,250 333 445 1024
2021-07-18 12:42:15 GMT 52.866577 -1.316452 27,175 332 445 1216
2021-07-18 12:42:12 GMT 52.860260 -1.310883 26,675 332 445 1536
2021-07-18 12:42:09 GMT 52.849453 -1.301174 26,950 330 445 1856
2021-07-18 12:42:06 GMT 52.849453 -1.301174 26,950 331 444 1792
2021-07-18 12:42:03 GMT 52.844513 -1.296539 26,925 330 444 1856
2021-07-18 12:42:01 GMT 52.840118 -1.292343 26,650 329 446 1792
2021-07-18 12:41:58 GMT 52.834694 -1.286891 26,725 329 446 1856
2021-07-18 12:41:55 GMT 52.830002 -1.282120 26,650 328 446 1728
2021-07-18 12:41:52 GMT 52.825653 -1.277542 26,525 327 446 1536
2021-07-18 12:41:49 GMT 52.818970 -1.270294 26,450 326 447 1472
2021-07-18 12:41:46 GMT 52.816406 -1.267471 26,300 326 446 1472
2021-07-18 12:41:44 GMT 52.808441 -1.258405 26,350 326 447 1472
2021-07-18 12:41:42 GMT 52.808441 -1.258405 26,350 326 447 1472
2021-07-18 12:41:40 GMT 52.804295 -1.253697 26,275 326 447 1408
2021-07-18 12:41:37 GMT 52.799408 -1.248125 26,200 326 447 1344
2021-07-18 12:41:35 GMT 52.795944 -1.244202 26,175 326 447 1344
2021-07-18 12:41:32 GMT 52.791779 -1.239395 26,125 326 447 1280
2021-07-18 12:41:30 GMT 52.787476 -1.234512 26,075 326 448 1216
2021-07-18 12:41:27 GMT 52.781857 -1.228036 25,950 326 447 1024
2021-07-18 12:41:24 GMT 52.778366 -1.224060 25,925 326 447 1088
2021-07-18 12:41:22 GMT 52.773014 -1.217913 25,900 326 447 896
2021-07-18 12:41:19 GMT 52.763306 -1.206741 25,800 326 446 768
2021-07-18 12:41:16 GMT 52.763306 -1.206741 25,825 325 445 768
2021-07-18 12:41:13 GMT 52.757046 -1.199550 25,325 325 445 960
2021-07-18 12:41:10 GMT 52.753143 -1.194992 25,750 325 445 960
2021-07-18 12:41:07 GMT 52.748852 -1.189976 25,700 325 445 1152
2021-07-18 12:41:05 GMT 52.740234 -1.180038 25,625 325 445 1536
2021-07-18 12:41:02 GMT 52.740234 -1.180038 25,475 325 445 1664
2021-07-18 12:40:59 GMT 52.735447 -1.174517 25,425 325 445 1664
2021-07-18 12:40:56 GMT 52.730839 -1.169181 25,425 325 445 1664
2021-07-18 12:40:54 GMT 52.726692 -1.164394 25,350 325 446 1728
2021-07-18 12:40:51 GMT 52.723343 -1.160507 25,275 325 446 1920
2021-07-18 12:40:49 GMT 52.719177 -1.155701 25,025 325 447 2176
2021-07-18 12:40:46 GMT 52.714588 -1.150347 25,125 325 446 2048
2021-07-18 12:40:44 GMT 52.710541 -1.145639 25,000 325 448 2240
2021-07-18 12:40:42 GMT 52.706360 -1.140747 24,775 325 449 2240
2021-07-18 12:40:39 GMT 52.700546 -1.134033 24,775 325 449 2240
2021-07-18 12:40:36 GMT 52.695374 -1.128006 24,775 325 450 2240
2021-07-18 12:40:33 GMT 52.691391 -1.123428 24,575 325 451 1792
2021-07-18 12:40:30 GMT 52.687031 -1.118330 24,500 325 451 1792
2021-07-18 12:40:27 GMT 52.681046 -1.111374 24,475 325 452 1472
2021-07-18 12:40:24 GMT 52.676010 -1.105576 24,425 325 452 1344
2021-07-18 12:40:22 GMT 52.672806 -1.101837 24,325 325 452 1088
2021-07-18 12:40:19 GMT 52.667946 -1.096200 24,275 325 452 1024
2021-07-18 12:40:16 GMT 52.663338 -1.090864 24,250 325 451 832
2021-07-18 12:40:14 GMT 52.659073 -1.085892 24,225 325 450 768
2021-07-18 12:40:12 GMT 52.655933 -1.082232 24,175 325 448 832
2021-07-18 12:40:09 GMT 52.649094 -1.074371 24,175 325 449 768
2021-07-18 12:40:06 GMT 52.640488 -1.064453 24,100 325 448 1088
2021-07-18 12:40:03 GMT 52.640488 -1.064453 24,075 325 448 1280
2021-07-18 12:40:00 GMT 52.635223 -1.058350 23,975 325 447 1536
2021-07-18 12:39:57 GMT 52.630005 -1.052412 23,950 325 447 1472
2021-07-18 12:39:55 GMT 52.626514 -1.048331 23,900 325 447 1536
2021-07-18 12:39:52 GMT 52.620483 -1.041336 23,750 325 447 1472
2021-07-18 12:39:49 GMT 52.611385 -1.030831 23,650 325 447 1472
2021-07-18 12:39:46 GMT 52.606495 -1.025260 23,650 325 447 1472
2021-07-18 12:39:43 GMT 52.606495 -1.025260 23,550 325 447 1472
2021-07-18 12:39:40 GMT 52.601898 -1.019897 23,500 325 447 1536
2021-07-18 12:39:38 GMT 52.598694 -1.016235 23,450 325 447 1536
2021-07-18 12:39:35 GMT 52.592148 -1.008606 23,275 325 446 1344
2021-07-18 12:39:32 GMT 52.587021 -1.002655 23,250 325 446 1088
2021-07-18 12:39:29 GMT 52.583500 -0.998579 23,250 325 446 1024
2021-07-18 12:39:26 GMT 52.577728 -0.991898 23,200 325 446 1088
2021-07-18 12:39:23 GMT 52.573399 -0.986886 23,150 325 446 960
2021-07-18 12:39:21 GMT 52.568985 -0.981750 23,050 325 445 896
2021-07-18 12:39:18 GMT 52.564461 -0.976449 23,000 325 444 960
2021-07-18 12:39:15 GMT 52.559875 -0.971146 23,050 325 444 1024
2021-07-18 12:39:12 GMT 52.554356 -0.964757 22,950 325 443 1088
2021-07-18 12:39:09 GMT 52.549438 -0.959015 22,925 325 443 1152
2021-07-18 12:39:06 GMT 52.539413 -0.947414 22,750 325 441 1280
2021-07-18 12:39:03 GMT 52.539413 -0.947414 22,700 325 441 1344
2021-07-18 12:39:00 GMT 52.533920 -0.940979 22,725 325 441 1280
2021-07-18 12:38:58 GMT 52.531269 -0.937997 22,700 325 441 1344
2021-07-18 12:38:56 GMT 52.527355 -0.933367 22,625 325 441 1408
2021-07-18 12:38:53 GMT 52.523075 -0.928423 22,550 325 441 1472
2021-07-18 12:38:51 GMT 52.519501 -0.924301 22,500 325 441 1472
2021-07-18 12:38:49 GMT 52.511078 -0.914536 22,450 325 440 1472
2021-07-18 12:38:46 GMT 52.506409 -0.909040 22,350 324 434 1792
2021-07-18 12:38:43 GMT 52.506409 -0.909040 22,325 325 440 1408
2021-07-18 12:38:41 GMT 52.502312 -0.904253 22,275 325 440 1344
2021-07-18 12:38:38 GMT 52.497437 -0.898514 22,200 325 439 1280
2021-07-18 12:38:35 GMT 52.491745 -0.891776 22,125 325 439 1216
2021-07-18 12:38:32 GMT 52.483337 -0.881882 22,025 325 438 1216
2021-07-18 12:38:29 GMT 52.483337 -0.881882 22,025 325 438 1216
2021-07-18 12:38:26 GMT 52.476517 -0.873795 21,950 325 437 1216
2021-07-18 12:38:23 GMT 52.472195 -0.868626 21,875 324 436 1408
2021-07-18 12:38:20 GMT 52.467258 -0.862741 21,775 324 436 1408
2021-07-18 12:38:17 GMT 52.464046 -0.858895 21,550 324 435 1536
2021-07-18 12:38:14 GMT 52.457764 -0.851362 21,650 324 435 1536
2021-07-18 12:38:11 GMT 52.449520 -0.841474 21,600 324 435 1728
2021-07-18 12:38:08 GMT 52.449520 -0.841474 21,550 324 435 1728
2021-07-18 12:38:05 GMT 52.443005 -0.833705 21,400 324 435 1728
2021-07-18 12:38:02 GMT 52.439373 -0.829389 21,325 324 435 1664
2021-07-18 12:37:59 GMT 52.434494 -0.823593 21,175 324 434 1792
2021-07-18 12:37:57 GMT 52.432114 -0.820770 21,250 324 435 1728
2021-07-18 12:37:55 GMT 52.423599 -0.810623 20,975 324 434 1792
2021-07-18 12:37:52 GMT 52.423599 -0.810623 21,100 324 434 1792
2021-07-18 12:37:50 GMT 52.419983 -0.806274 21,025 324 434 1728
2021-07-18 12:37:47 GMT 52.415073 -0.800432 20,925 324 434 1600
2021-07-18 12:37:44 GMT 52.409206 -0.793370 20,800 324 433 1472
2021-07-18 12:37:41 GMT 52.404926 -0.788191 20,750 324 433 1280
2021-07-18 12:37:38 GMT 52.398697 -0.780716 20,700 324 432 1280
2021-07-18 12:37:35 GMT 52.394173 -0.775164 20,625 324 431 1344
2021-07-18 12:37:32 GMT 52.389843 -0.769985 20,525 324 431 1408
2021-07-18 12:37:29 GMT 52.385746 -0.764962 20,425 324 429 1536
2021-07-18 12:37:26 GMT 52.382126 -0.760574 20,225 324 429 1536
2021-07-18 12:37:23 GMT 52.376343 -0.753584 20,375 324 429 1536
2021-07-18 12:37:21 GMT 52.367031 -0.742362 20,250 324 429 1536
2021-07-18 12:37:18 GMT 52.367031 -0.742362 20,250 324 427 1472
2021-07-18 12:37:15 GMT 52.358280 -0.731846 20,125 324 427 1408
2021-07-18 12:37:12 GMT 52.355068 -0.728001 20,075 324 427 1344
2021-07-18 12:37:10 GMT 52.355068 -0.728001 19,975 324 425 1408
2021-07-18 12:37:07 GMT 52.350460 -0.722508 19,825 324 425 1536
2021-07-18 12:37:04 GMT 52.346558 -0.717850 19,850 325 424 1536
2021-07-18 12:37:01 GMT 52.341385 -0.711746 19,600 325 421 1728
2021-07-18 12:36:58 GMT 52.335297 -0.704575 19,700 325 423 1600
2021-07-18 12:36:55 GMT 52.330353 -0.698700 19,625 325 423 1664
2021-07-18 12:36:52 GMT 52.327694 -0.695592 19,550 325 421 1728
2021-07-18 12:36:50 GMT 52.322945 -0.690020 19,325 325 421 1792
2021-07-18 12:36:47 GMT 52.320007 -0.686493 19,400 325 421 1792
2021-07-18 12:36:45 GMT 52.316105 -0.681937 19,350 325 421 1856
2021-07-18 12:36:42 GMT 52.311493 -0.676522 19,250 324 421 1920
2021-07-18 12:36:40 GMT 52.308243 -0.672607 19,200 325 420 2112
2021-07-18 12:36:38 GMT 52.305210 -0.668989 19,025 324 420 1984
2021-07-18 12:36:34 GMT 52.295433 -0.657453 18,925 325 420 2112
2021-07-18 12:36:32 GMT 52.295433 -0.657453 18,925 325 420 2176
2021-07-18 12:36:30 GMT 52.291855 -0.653152 18,825 325 420 2112
2021-07-18 12:36:27 GMT 52.286217 -0.646467 18,750 325 420 2048
2021-07-18 12:36:24 GMT 52.277603 -0.636265 18,550 324 420 1728
2021-07-18 12:36:21 GMT 52.277603 -0.636265 18,550 324 419 1600
2021-07-18 12:36:18 GMT 52.273041 -0.630798 18,475 324 418 1472
2021-07-18 12:36:15 GMT 52.267319 -0.623932 18,375 324 417 1472
2021-07-18 12:36:12 GMT 52.260010 -0.615156 18,300 324 417 1728
2021-07-18 12:36:09 GMT 52.260010 -0.615156 18,250 325 415 1920
2021-07-18 12:36:07 GMT 52.253494 -0.607300 17,950 324 416 2048
2021-07-18 12:36:05 GMT 52.253494 -0.607300 18,100 324 415 2304
2021-07-18 12:36:02 GMT 52.249008 -0.601959 18,000 324 415 2304
2021-07-18 12:36:00 GMT 52.245163 -0.597382 17,825 324 414 1920
2021-07-18 12:35:57 GMT 52.240814 -0.592270 17,850 325 415 1984
2021-07-18 12:35:55 GMT 52.238251 -0.589218 17,675 324 414 1856
2021-07-18 12:35:52 GMT 52.232540 -0.582432 17,625 324 413 1920
2021-07-18 12:35:49 GMT 52.228725 -0.577881 17,450 324 413 1984
2021-07-18 12:35:47 GMT 52.222206 -0.570190 17,475 324 413 2048
2021-07-18 12:35:45 GMT 52.217789 -0.564880 17,350 324 413 2048
2021-07-18 12:35:42 GMT 52.213177 -0.559440 17,300 325 412 1984
2021-07-18 12:35:40 GMT 52.213177 -0.559440 17,225 325 412 1920
2021-07-18 12:35:37 GMT 52.210896 -0.556693 17,175 325 411 1920
2021-07-18 12:35:35 GMT 52.207077 -0.552220 17,100 325 412 1984
2021-07-18 12:35:32 GMT 52.201725 -0.546099 17,000 326 411 2048
2021-07-18 12:35:30 GMT 52.199955 -0.544059 16,900 327 411 2112
2021-07-18 12:35:28 GMT 52.193710 -0.537186 16,825 328 411 2112
2021-07-18 12:35:26 GMT 52.193710 -0.537186 16,800 328 411 2112
2021-07-18 12:35:24 GMT 52.189636 -0.533066 16,675 332 411 2112
2021-07-18 12:35:21 GMT 52.186111 -0.529709 16,625 332 411 2112
2021-07-18 12:35:19 GMT 52.181847 -0.526010 16,475 335 411 2176
2021-07-18 12:35:16 GMT 52.176819 -0.522156 16,325 346 411 1984
2021-07-18 12:35:13 GMT 52.170547 -0.518036 16,325 342 411 2048
2021-07-18 12:35:10 GMT 52.165321 -0.515259 16,225 346 411 1984
2021-07-18 12:35:07 GMT 52.160713 -0.513062 16,175 346 411 1984
2021-07-18 12:35:05 GMT 52.157959 -0.512009 16,100 349 411 1856
2021-07-18 12:35:03 GMT 52.153610 -0.510483 16,025 351 410 1664
2021-07-18 12:35:00 GMT 52.146652 -0.508804 15,800 356 409 1152
2021-07-18 12:34:57 GMT 52.135807 -0.507098 15,850 356 407 1024
2021-07-18 12:34:54 GMT 52.135807 -0.507098 15,775 356 407 960
2021-07-18 12:34:51 GMT 52.124313 -0.505524 15,750 356 404 704
2021-07-18 12:34:48 GMT 52.124313 -0.505524 15,725 356 401 704
2021-07-18 12:34:46 GMT 52.120026 -0.504900 15,700 356 400 704
2021-07-18 12:34:43 GMT 52.114059 -0.504150 15,675 356 399 704
2021-07-18 12:34:40 GMT 52.108665 -0.503409 15,300 356 395 704
2021-07-18 12:34:37 GMT 52.103851 -0.502777 15,600 356 394 768
2021-07-18 12:34:35 GMT 52.096561 -0.501918 15,575 357 391 896
2021-07-18 12:34:33 GMT 52.091904 -0.501404 15,525 357 389 1024
2021-07-18 12:34:30 GMT 52.091904 -0.501404 15,500 358 388 1216
2021-07-18 12:34:28 GMT 52.087921 -0.501099 15,450 358 387 1344
2021-07-18 12:34:26 GMT 52.083576 -0.500898 15,200 0 386 1728
2021-07-18 12:34:23 GMT 52.078400 -0.500946 15,300 13 385 2112
2021-07-18 12:34:20 GMT 52.073147 -0.501369 15,200 6 385 2240
2021-07-18 12:34:18 GMT 52.069931 -0.501862 15,150 6 385 2304
2021-07-18 12:34:16 GMT 52.064301 -0.503159 14,975 9 385 2240
2021-07-18 12:34:14 GMT 52.064301 -0.503159 14,950 12 385 2176
2021-07-18 12:34:12 GMT 52.058994 -0.504900 14,850 20 385 1920
2021-07-18 12:34:09 GMT 52.049194 -0.509644 14,725 19 385 1920
2021-07-18 12:34:06 GMT 52.049194 -0.509644 14,675 20 385 1984
2021-07-18 12:34:03 GMT 52.044891 -0.512161 14,600 20 383 1984
2021-07-18 12:34:00 GMT 52.034695 -0.518398 14,475 20 382 2048
2021-07-18 12:33:57 GMT 52.034695 -0.518398 14,425 20 382 2112
2021-07-18 12:33:55 GMT 52.027805 -0.522635 14,100 14 360 1984
2021-07-18 12:33:53 GMT 52.027805 -0.522635 14,100 20 381 2688
2021-07-18 12:33:51 GMT 52.024452 -0.524754 14,175 20 381 2816
2021-07-18 12:33:48 GMT 52.019470 -0.527815 14,025 21 380 3008
2021-07-18 12:33:46 GMT 52.012070 -0.532445 13,725 21 380 3392
2021-07-18 12:33:44 GMT 52.012070 -0.532445 13,625 21 381 3520
2021-07-18 12:33:41 GMT 52.007881 -0.535034 13,600 21 381 3392
2021-07-18 12:33:39 GMT 52.004471 -0.537186 13,475 21 382 2560
2021-07-18 12:33:36 GMT 52.000214 -0.539932 13,075 20 382 2944
2021-07-18 12:33:33 GMT 51.994263 -0.543594 13,225 21 382 2624
2021-07-18 12:33:30 GMT 51.989212 -0.546805 13,075 20 382 2880
2021-07-18 12:33:27 GMT 51.984100 -0.549927 12,800 20 382 3136
2021-07-18 12:33:24 GMT 51.976044 -0.554962 12,775 20 382 3264
2021-07-18 12:33:22 GMT 51.972107 -0.557327 12,600 20 382 3328
2021-07-18 12:33:19 GMT 51.972107 -0.557327 12,400 20 382 3328
2021-07-18 12:33:16 GMT 51.964417 -0.561905 12,275 18 383 2944
2021-07-18 12:33:12 GMT 51.960526 -0.564194 12,175 18 383 2944
2021-07-18 12:33:09 GMT 51.955044 -0.567130 12,000 15 381 2112
2021-07-18 12:33:07 GMT 51.952297 -0.568542 11,800 16 382 2240
2021-07-18 12:33:05 GMT 51.943546 -0.572466 11,825 14 379 1728
2021-07-18 12:33:02 GMT 51.943546 -0.572466 11,675 14 379 1664
2021-07-18 12:32:59 GMT 51.937168 -0.574977 11,675 10 372 832
2021-07-18 12:32:56 GMT 51.932980 -0.576468 11,675 11 374 1088
2021-07-18 12:32:53 GMT 51.928741 -0.577802 11,625 10 371 832
2021-07-18 12:32:50 GMT 51.919006 -0.580673 11,550 10 365 960
2021-07-18 12:32:48 GMT 51.919006 -0.580673 11,525 10 363 960
2021-07-18 12:32:45 GMT 51.914639 -0.581961 11,475 10 359 1024
2021-07-18 12:32:42 GMT 51.910866 -0.583060 11,425 10 346 1152
2021-07-18 12:32:39 GMT 51.899002 -0.586548 11,350 10 348 1088
2021-07-18 12:32:36 GMT 51.899002 -0.586548 11,350 10 351 1024
2021-07-18 12:32:33 GMT 51.894199 -0.587926 11,250 10 346 1152
2021-07-18 12:32:30 GMT 51.890854 -0.588956 11,200 10 342 1216
2021-07-18 12:32:27 GMT 51.885406 -0.590589 11,150 10 340 1280
2021-07-18 12:32:25 GMT 51.878540 -0.592594 11,050 10 335 1152
2021-07-18 12:32:22 GMT 51.878540 -0.592594 11,050 10 333 1152
2021-07-18 12:32:20 GMT 51.875580 -0.593491 11,025 10 332 1152
2021-07-18 12:32:18 GMT 51.872414 -0.594406 10,975 10 330 1152
2021-07-18 12:32:16 GMT 51.869343 -0.595322 10,950 10 325 1152
2021-07-18 12:32:14 GMT 51.866222 -0.596237 10,900 10 321 1152
2021-07-18 12:32:12 GMT 51.862427 -0.597344 10,850 10 308 1280
2021-07-18 12:32:09 GMT 51.853886 -0.599823 10,775 10 299 1536
2021-07-18 12:32:06 GMT 51.850204 -0.600908 10,700 10 310 1280
2021-07-18 12:32:03 GMT 51.846359 -0.602021 10,650 10 306 1344
2021-07-18 12:32:00 GMT 51.846359 -0.602021 10,650 10 306 1344
2021-07-18 12:31:58 GMT 51.842854 -0.603104 10,525 10 304 1408
2021-07-18 12:31:55 GMT 51.835869 -0.605164 10,450 10 299 1472
2021-07-18 12:31:52 GMT 51.835869 -0.605164 10,450 10 299 1536
2021-07-18 12:31:50 GMT 51.832474 -0.606155 10,350 10 293 1920
2021-07-18 12:31:48 GMT 51.829353 -0.607071 10,300 10 291 2112
2021-07-18 12:31:46 GMT 51.826584 -0.607885 10,225 10 290 2112
2021-07-18 12:31:44 GMT 51.825073 -0.608331 10,175 10 290 2048
2021-07-18 12:31:42 GMT 51.822929 -0.608902 10,125 10 289 1984
2021-07-18 12:31:40 GMT 51.819065 -0.610046 9,950 10 287 1920
2021-07-18 12:31:38 GMT 51.817062 -0.610580 9,975 10 287 1920
2021-07-18 12:31:36 GMT 51.813858 -0.611523 9,750 10 287 1984
2021-07-18 12:31:33 GMT 51.810654 -0.612414 9,800 10 286 2048
2021-07-18 12:31:30 GMT 51.805702 -0.613861 9,675 10 286 2048
2021-07-18 12:31:28 GMT 51.799759 -0.615531 9,475 10 285 2048
2021-07-18 12:31:25 GMT 51.799759 -0.615531 9,550 10 285 2048
2021-07-18 12:31:22 GMT 51.795914 -0.616645 9,350 9 285 2048
2021-07-18 12:31:19 GMT 51.792480 -0.617610 9,350 9 285 2048
2021-07-18 12:31:16 GMT 51.787548 -0.618973 9,200 9 285 1984
2021-07-18 12:31:14 GMT 51.782986 -0.620270 9,125 9 285 2048
2021-07-18 12:31:12 GMT 51.782986 -0.620270 9,025 9 285 2048
2021-07-18 12:31:09 GMT 51.779774 -0.621109 8,925 9 284 2048
2021-07-18 12:31:07 GMT 51.776657 -0.621948 8,925 9 284 1984
2021-07-18 12:31:05 GMT 51.774002 -0.622711 8,800 9 284 1920
2021-07-18 12:31:02 GMT 51.769821 -0.623845 8,725 9 284 1984
2021-07-18 12:30:59 GMT 51.766983 -0.624588 8,650 9 284 1984
2021-07-18 12:30:57 GMT 51.764275 -0.625305 8,600 9 284 1920
2021-07-18 12:30:55 GMT 51.759712 -0.626602 8,475 9 285 1920
2021-07-18 12:30:52 GMT 51.757736 -0.627111 8,475 9 285 1920
2021-07-18 12:30:49 GMT 51.753986 -0.628128 8,325 9 286 1984
2021-07-18 12:30:47 GMT 51.750778 -0.629042 8,225 9 285 1984
2021-07-18 12:30:45 GMT 51.746704 -0.630155 8,125 9 284 1984
2021-07-18 12:30:42 GMT 51.743317 -0.631046 8,000 9 282 1984
2021-07-18 12:30:39 GMT 51.740669 -0.631790 7,900 9 283 1984
2021-07-18 12:30:37 GMT 51.734760 -0.633392 7,825 9 282 1920
2021-07-18 12:30:35 GMT 51.734760 -0.633392 7,800 9 282 1920
2021-07-18 12:30:32 GMT 51.730225 -0.634609 7,775 9 281 1920
2021-07-18 12:30:29 GMT 51.727497 -0.635376 7,650 9 281 1792
2021-07-18 12:30:27 GMT 51.724422 -0.636215 7,625 9 281 1728
2021-07-18 12:30:25 GMT 51.721252 -0.637059 7,550 9 281 1408
2021-07-18 12:30:22 GMT 51.718746 -0.637741 7,000 9 277 320
2021-07-18 12:30:19 GMT 51.710972 -0.639877 7,400 9 281 1216
2021-07-18 12:30:17 GMT 51.707886 -0.640696 7,375 9 281 1216
2021-07-18 12:30:14 GMT 51.707886 -0.640696 7,350 9 281 1216
2021-07-18 12:30:12 GMT 51.705734 -0.641290 7,325 9 281 1216
2021-07-18 12:30:09 GMT 51.701797 -0.642403 7,250 9 280 1216
2021-07-18 12:30:07 GMT 51.694675 -0.644302 7,175 9 278 1280
2021-07-18 12:30:04 GMT 51.694675 -0.644302 7,150 9 277 1280
2021-07-18 12:30:01 GMT 51.691681 -0.645150 7,100 9 277 1152
2021-07-18 12:29:59 GMT 51.689278 -0.645752 7,000 9 277 0
2021-07-18 12:29:56 GMT 51.686005 -0.646709 7,025 9 276 640
2021-07-18 12:29:54 GMT 51.682945 -0.647507 7,000 9 276 384
2021-07-18 12:29:52 GMT 51.679176 -0.648499 7,000 9 277 0
2021-07-18 12:29:49 GMT 51.676056 -0.649414 7,000 9 277 0
2021-07-18 12:29:47 GMT 51.672657 -0.650330 7,000 9 277 0
2021-07-18 12:29:44 GMT 51.670029 -0.651014 7,000 9 277 0
2021-07-18 12:29:42 GMT 51.666000 -0.652084 7,000 9 278 0
2021-07-18 12:29:39 GMT 51.660233 -0.653687 7,000 9 278 0
2021-07-18 12:29:36 GMT 51.660233 -0.653687 7,000 9 278 0
2021-07-18 12:29:34 GMT 51.656342 -0.654726 7,000 9 278 0
2021-07-18 12:29:31 GMT 51.653198 -0.655594 7,000 9 278 0
2021-07-18 12:29:28 GMT 51.650070 -0.656433 7,000 9 278 0
2021-07-18 12:29:26 GMT 51.647102 -0.657272 7,000 9 278 64
2021-07-18 12:29:24 GMT 51.644402 -0.658035 7,000 9 278 128
2021-07-18 12:29:22 GMT 51.636978 -0.660070 6,975 9 278 256
2021-07-18 12:29:19 GMT 51.636978 -0.660070 6,950 9 278 384
2021-07-18 12:29:16 GMT 51.634506 -0.660739 6,950 9 278 384
2021-07-18 12:29:14 GMT 51.631851 -0.661407 6,950 9 277 512
2021-07-18 12:29:11 GMT 51.628246 -0.662460 6,900 9 277 576
2021-07-18 12:29:09 GMT 51.625130 -0.663300 6,900 9 277 576
2021-07-18 12:29:07 GMT 51.623173 -0.663834 6,875 9 277 512
2021-07-18 12:29:04 GMT 51.617958 -0.665283 6,850 9 277 512
2021-07-18 12:29:01 GMT 51.615509 -0.665935 6,825 9 277 512
2021-07-18 12:28:59 GMT 51.612465 -0.666809 6,800 9 277 512
2021-07-18 12:28:57 GMT 51.610558 -0.667343 6,800 9 277 512
2021-07-18 12:28:55 GMT 51.605019 -0.668869 6,725 9 278 512
2021-07-18 12:28:53 GMT 51.605019 -0.668869 6,750 9 278 1024
2021-07-18 12:28:50 GMT 51.597244 -0.671082 6,725 9 278 704
2021-07-18 12:28:47 GMT 51.597244 -0.671082 6,675 9 278 960
2021-07-18 12:28:45 GMT 51.594635 -0.671799 6,650 9 278 1024
2021-07-18 12:28:43 GMT 51.591476 -0.672690 6,600 9 278 1088
2021-07-18 12:28:40 GMT 51.588089 -0.673655 6,550 9 278 1152
2021-07-18 12:28:37 GMT 51.582298 -0.675201 6,475 9 277 1088
2021-07-18 12:28:35 GMT 51.582298 -0.675201 6,475 9 277 1088
2021-07-18 12:28:33 GMT 51.577011 -0.676698 6,400 9 276 1152
2021-07-18 12:28:30 GMT 51.577011 -0.676698 6,350 9 276 1152
2021-07-18 12:28:28 GMT 51.573921 -0.677490 6,325 9 276 1152
2021-07-18 12:28:25 GMT 51.570374 -0.678406 6,300 9 276 1152
2021-07-18 12:28:23 GMT 51.566891 -0.679321 6,200 8 277 1216
2021-07-18 12:28:20 GMT 51.564148 -0.680039 6,175 8 276 1344
2021-07-18 12:28:18 GMT 51.558014 -0.681449 6,075 7 276 1536
2021-07-18 12:28:13 GMT 51.554787 -0.682068 6,000 5 276 1600
2021-07-18 12:28:10 GMT 51.551716 -0.682526 5,875 3 276 1600
2021-07-18 12:28:08 GMT 51.546982 -0.682934 5,850 359 276 1536
2021-07-18 12:28:05 GMT 51.544968 -0.682934 5,600 345 273 1600
2021-07-18 12:28:03 GMT 51.542404 -0.682637 5,750 353 274 1536
2021-07-18 12:28:00 GMT 51.538448 -0.681686 5,650 345 273 1600
2021-07-18 12:27:57 GMT 51.534164 -0.679932 5,550 341 272 1600
2021-07-18 12:27:54 GMT 51.529770 -0.677292 5,475 336 272 1408
2021-07-18 12:27:51 GMT 51.527939 -0.675882 5,400 329 272 1536
2021-07-18 12:27:48 GMT 51.521130 -0.668869 5,325 325 271 1600
2021-07-18 12:27:45 GMT 51.521130 -0.668869 5,250 320 272 1664
2021-07-18 12:27:43 GMT 51.519196 -0.666306 5,200 310 271 2560
2021-07-18 12:27:40 GMT 51.516430 -0.661926 4,925 307 271 2816
2021-07-18 12:27:38 GMT 51.514381 -0.658188 5,000 308 270 2624
2021-07-18 12:27:35 GMT 51.511356 -0.651474 4,825 302 268 3136
2021-07-18 12:27:33 GMT 51.509171 -0.645447 4,775 299 267 3520
2021-07-18 12:27:30 GMT 51.509171 -0.645447 4,600 299 267 3520
2021-07-18 12:27:28 GMT 51.508236 -0.642776 4,375 298 267 3840
2021-07-18 12:27:25 GMT 51.505325 -0.633792 4,225 298 266 3712
2021-07-18 12:27:21 GMT 51.504227 -0.630378 3,600 298 265 3136
2021-07-18 12:27:18 GMT 51.502350 -0.624439 3,875 298 263 2816
2021-07-18 12:27:15 GMT 51.500610 -0.619094 3,800 298 261 2624
2021-07-18 12:27:13 GMT 51.500088 -0.617447 3,700 298 260 2560
2021-07-18 12:27:11 GMT 51.498047 -0.611226 3,550 298 255 2048
2021-07-18 12:27:08 GMT 51.496765 -0.607292 3,475 298 254 1856
2021-07-18 12:27:06 GMT 51.495712 -0.604025 3,375 299 247 1600
2021-07-18 12:27:03 GMT 51.494640 -0.600662 3,375 299 249 1600
2021-07-18 12:27:01 GMT 51.493061 -0.595932 3,250 299 243 1920
2021-07-18 12:26:58 GMT 51.491478 -0.591354 3,150 299 238 2432
2021-07-18 12:26:56 GMT 51.489941 -0.586853 3,050 300 233 3584
2021-07-18 12:26:53 GMT 51.488869 -0.583725 2,925 300 235 3008
2021-07-18 12:26:50 GMT 51.487381 -0.579529 2,500 300 232 3520
2021-07-18 12:26:47 GMT 51.485779 -0.574926 2,550 298 232 3264
2021-07-18 12:26:44 GMT 51.483032 -0.566835 2,325 298 232 3264
2021-07-18 12:26:39 GMT 51.481384 -0.561416 2,025 290 222 1280
2021-07-18 12:26:36 GMT 51.480305 -0.557556 2,025 290 222 1280
2021-07-18 12:26:33 GMT 51.479187 -0.552902 2,025 289 221 1024
2021-07-18 12:26:30 GMT 51.478302 -0.547867 1,975 283 214 384
2021-07-18 12:26:29 GMT 51.477905 -0.544491 1,950 280 210 512
2021-07-18 12:26:27 GMT 51.477745 -0.542221 1,950 277 207 960
2021-07-18 12:26:25 GMT 51.477631 -0.540631 1,925 276 204 1088
2021-07-18 12:26:24 GMT 51.477512 -0.538101 1,875 274 203 1088
2021-07-18 12:26:22 GMT 51.477493 -0.536400 1,875 272 201 1152
2021-07-18 12:26:21 GMT 51.477448 -0.535064 1,850 271 200 1152
2021-07-18 12:26:19 GMT 51.477417 -0.532150 1,825 271 197 1152
2021-07-18 12:26:18 GMT 51.477448 -0.530536 1,800 270 196 1216
2021-07-18 12:26:17 GMT 51.477417 -0.527344 1,750 270 193 1280
2021-07-18 12:26:15 GMT 51.477467 -0.525742 1,725 270 191 1280
2021-07-18 12:26:14 GMT 51.477448 -0.524449 1,700 270 190 1216
2021-07-18 12:26:11 GMT 51.477467 -0.521622 1,650 270 187 1024
2021-07-18 12:26:10 GMT 51.477512 -0.518112 1,600 270 182 960
2021-07-18 12:26:08 GMT 51.477512 -0.516739 1,600 270 180 896
2021-07-18 12:26:07 GMT 51.477558 -0.512695 1,575 270 176 960
2021-07-18 12:26:05 GMT 51.477558 -0.512695 1,550 270 174 1024
2021-07-18 12:26:03 GMT 51.477604 -0.508347 1,475 270 169 1472
2021-07-18 12:26:01 GMT 51.477604 -0.508347 1,475 270 168 1664
2021-07-18 12:25:59 GMT 51.477585 -0.505965 1,400 270 167 1792
2021-07-18 12:25:58 GMT 51.477585 -0.504035 1,350 270 165 1792
2021-07-18 12:25:56 GMT 51.477604 -0.501633 1,300 270 163 1728
2021-07-18 12:25:55 GMT 51.477585 -0.500472 1,275 270 162 1664
2021-07-18 12:25:54 GMT 51.477604 -0.498123 1,225 270 160 1600
2021-07-18 12:25:52 GMT 51.477585 -0.496909 1,150 270 159 1728
2021-07-18 12:25:51 GMT 51.477585 -0.494459 1,150 270 157 1792
2021-07-18 12:25:48 GMT 51.477585 -0.492232 1,050 270 156 1920
2021-07-18 12:25:47 GMT 51.477604 -0.489883 1,025 270 153 2176
2021-07-18 12:25:45 GMT 51.477631 -0.488743 975 270 152 2368
2021-07-18 12:25:44 GMT 51.477631 -0.487555 875 270 152 2752
2021-07-18 12:25:43 GMT 51.477650 -0.485153 800 270 152 2752
2021-07-18 12:25:41 GMT 51.477650 -0.483856 750 270 152 2752
2021-07-18 12:25:40 GMT 51.477650 -0.482864 700 270 152 2880
2021-07-18 12:25:39 GMT 51.477695 -0.480576 600 270 153 2816
2021-07-18 12:25:37 GMT 51.477695 -0.479355 550 270 154 2816
2021-07-18 12:25:36 GMT 51.477695 -0.477219 400 270 154 2624
2021-07-18 12:25:33 GMT 51.477676 -0.473748 400 271 154 2432
2021-07-18 12:25:31 GMT 51.477676 -0.472486 300 271 154 2304
2021-07-18 12:25:28 GMT 51.477650 -0.469742 225 271 153 2240
2021-07-18 12:25:27 GMT 51.477676 -0.468626 150 271 152 1984
2021-07-18 12:25:26 GMT 51.477676 -0.467439 125 271 151 1856
2021-07-18 12:25:24 GMT 51.477676 -0.465286 100 271 150 2048
2021-07-18 12:25:23 GMT 51.477650 -0.464096 25 271 150 2112
2021-07-18 12:25:22 GMT 51.477650 -0.462952 -25 271 149 2240
2021-07-18 12:25:20 GMT 51.477631 -0.460832 -25 271 149 2240
2021-07-18 12:25:19 GMT 51.477650 -0.459824 -100 271 149 2176
2021-07-18 12:25:17 GMT 51.477604 -0.457230 -175 271 149 1728
2021-07-18 12:25:08 GMT 51.477631 -0.444872 -200 270 96 64
2021-07-18 12:25:05 GMT 51.477631 -0.444872 -200 270 92 64
2021-07-18 12:25:00 GMT 51.477665 -0.440734 0 270 84
2021-07-18 12:24:44 GMT 51.477688 -0.435410 0 270 44
2021-07-18 12:24:19 GMT 51.477688 -0.434981 0 267 7
2021-07-18 12:24:09 GMT 51.477673 -0.434418 0 315 10
2021-07-18 12:24:01 GMT 51.477356 -0.434090 0 2 12
2021-07-18 12:23:50 GMT 51.476795 -0.434387 0 45 11
2021-07-18 12:23:37 GMT 51.476440 -0.435018 0 47 7
2021-07-18 12:23:32 GMT 51.476360 -0.435185 0 45 6
2021-07-18 12:23:11 GMT 51.476177 -0.435482 0 42 0
2021-07-18 12:22:21 GMT 51.476173 -0.435486 0 42 0
2021-07-18 12:22:10 GMT 51.476120 -0.435537 0 45 3
2021-07-18 12:22:09 GMT 51.476089 -0.435562 0 50 4
2021-07-18 12:22:03 GMT 51.476040 -0.435630 0 56 4
2021-07-18 12:22:01 GMT 51.476009 -0.435677 0 64 4
2021-07-18 12:21:53 GMT 51.475925 -0.435871 0 84 5
2021-07-18 12:21:52 GMT 51.475929 -0.435905 0 87 5
2021-07-18 12:21:38 GMT 51.475929 -0.436478 0 90 7
2021-07-18 12:21:28 GMT 51.475925 -0.437208 0 90 12
2021-07-18 12:21:17 GMT 51.475925 -0.438117 0 87 12
2021-07-18 12:21:11 GMT 51.475914 -0.438674 0 90 12
2021-07-18 12:21:00 GMT 51.475918 -0.439548 0 90 12
2021-07-18 12:20:42 GMT 51.475914 -0.441309 0 90 14
2021-07-18 12:20:40 GMT 51.475914 -0.441513 0 90 13
2021-07-18 12:20:37 GMT 51.475918 -0.441837 0 90 12
2021-07-18 12:20:33 GMT 51.475918 -0.442123 0 90 12
2021-07-18 12:20:29 GMT 51.475914 -0.442422 0 92 12
2021-07-18 12:20:25 GMT 51.475925 -0.442775 0 101 12
2021-07-18 12:20:22 GMT 51.475964 -0.443115 0 98 13
2021-07-18 12:20:20 GMT 51.475975 -0.443192 0 95 13
2021-07-18 12:20:17 GMT 51.475998 -0.443516 0 90 14
2021-07-18 12:20:13 GMT 51.475998 -0.443916 0 90 15
2021-07-18 12:20:10 GMT 51.475998 -0.444202 0 90 16
2021-07-18 12:20:07 GMT 51.475986 -0.444565 0 90 18
2021-07-18 12:20:04 GMT 51.475986 -0.445023 0 90 18
2021-07-18 12:20:00 GMT 51.475986 -0.445538 0 90 18
2021-07-18 12:19:59 GMT 51.475983 -0.445726 0 90 17
2021-07-18 12:19:53 GMT 51.475983 -0.446338 0 90 17
2021-07-18 12:19:51 GMT 51.475986 -0.446529 0 90 17
2021-07-18 12:19:49 GMT 51.475986 -0.446796 0 90 17
2021-07-18 12:19:37 GMT 51.475975 -0.448322 0 90 19
2021-07-18 12:19:36 GMT 51.475983 -0.448732 0 90 20
2021-07-18 12:19:35 GMT 51.475983 -0.448732 0 90 20
2021-07-18 12:19:31 GMT 51.475975 -0.449314 0 90 21
2021-07-18 12:19:27 GMT 51.475975 -0.449924 0 90 22
2021-07-18 12:19:23 GMT 51.475975 -0.450439 0 90 21
2021-07-18 12:19:20 GMT 51.475975 -0.450859 0 90 21
2021-07-18 12:19:18 GMT 51.475971 -0.451256 0 90 21
2021-07-18 12:19:17 GMT 51.475964 -0.451412 0 90 20
2021-07-18 12:19:16 GMT 51.475971 -0.451553 0 90 20
2021-07-18 12:19:15 GMT 51.475971 -0.451720 0 90 20
2021-07-18 12:19:11 GMT 51.475971 -0.452314 0 90 19
2021-07-18 12:18:59 GMT 51.475960 -0.453780 0 90 16
2021-07-18 12:18:56 GMT 51.475964 -0.454140 0 90 15
2021-07-18 12:18:55 GMT 51.475964 -0.454197 0 90 15
2021-07-18 12:18:53 GMT 51.475964 -0.454407 0 90 14
2021-07-18 12:18:49 GMT 51.475952 -0.454826 0 90 14
2021-07-18 12:18:42 GMT 51.475952 -0.455494 0 90 14
2021-07-18 12:18:38 GMT 51.475960 -0.455914 0 90 14
2021-07-18 12:18:20 GMT 51.475948 -0.458030 0 90 21
2021-07-18 12:18:13 GMT 51.475948 -0.458883 0 90 21
2021-07-18 12:18:09 GMT 51.475941 -0.459538 0 90 21
2021-07-18 12:18:05 GMT 51.475948 -0.460108 0 90 22
2021-07-18 12:18:04 GMT 51.475948 -0.460331 0 90 22
2021-07-18 12:17:58 GMT 51.475937 -0.461240 0 90 23
2021-07-18 12:17:47 GMT 51.475925 -0.463263 0 90 24
2021-07-18 12:17:45 GMT 51.475929 -0.463753 0 90 23
2021-07-18 12:17:40 GMT 51.475929 -0.464382 0 90 22
2021-07-18 12:17:37 GMT 51.475918 -0.465221 0 90 21
2021-07-18 12:17:33 GMT 51.475929 -0.465736 0 90 20
2021-07-18 12:17:31 GMT 51.475925 -0.465880 0 90 20
2021-07-18 12:17:29 GMT 51.475925 -0.466177 0 90 20
2021-07-18 12:17:27 GMT 51.475914 -0.466436 0 90 20
2021-07-18 12:17:22 GMT 51.475918 -0.467052 0 90 19
2021-07-18 12:17:20 GMT 51.475914 -0.467272 0 90 19
2021-07-18 12:17:19 GMT 51.475918 -0.467739 0 90 18
2021-07-18 12:17:17 GMT 51.475918 -0.467739 0 87 18
2021-07-18 12:17:16 GMT 51.475906 -0.468159 0 84 18
2021-07-18 12:17:14 GMT 51.475906 -0.468159 0 84 18
2021-07-18 12:17:12 GMT 51.475891 -0.468404 0 81 18
2021-07-18 12:17:11 GMT 51.475880 -0.468533 0 81 17
2021-07-18 12:17:10 GMT 51.475845 -0.468905 0 84 17
2021-07-18 12:17:08 GMT 51.475845 -0.468905 0 84 17
2021-07-18 12:17:07 GMT 51.475834 -0.469276 0 87 16
2021-07-18 12:17:05 GMT 51.475834 -0.469276 0 87 16
2021-07-18 12:17:04 GMT 51.475822 -0.469398 0 87 16
2021-07-18 12:17:01 GMT 51.475822 -0.469721 0 90 15
2021-07-18 12:16:58 GMT 51.475811 -0.469990 0 90 15
2021-07-18 12:16:57 GMT 51.475822 -0.470167 0 90 15
2021-07-18 12:16:55 GMT 51.475822 -0.470333 0 90 15
2021-07-18 12:16:52 GMT 51.475811 -0.470695 0 90 16
2021-07-18 12:16:50 GMT 51.475811 -0.470810 0 90 15
2021-07-18 12:16:47 GMT 51.475811 -0.471172 0 90 15
2021-07-18 12:16:46 GMT 51.475811 -0.471429 0 90 15
2021-07-18 12:16:44 GMT 51.475811 -0.471503 0 90 15
2021-07-18 12:16:43 GMT 51.475811 -0.471687 0 90 15
2021-07-18 12:16:40 GMT 51.475811 -0.472004 0 90 15
2021-07-18 12:16:36 GMT 51.475811 -0.472542 0 90 15
2021-07-18 12:16:34 GMT 51.475811 -0.472635 0 90 15
2021-07-18 12:16:33 GMT 51.475811 -0.472851 0 90 15
2021-07-18 12:16:30 GMT 51.475811 -0.473025 0 90 15
2021-07-18 12:16:29 GMT 51.475811 -0.473309 0 90 16
2021-07-18 12:16:28 GMT 51.475811 -0.473309 0 90 16
2021-07-18 12:16:27 GMT 51.475811 -0.473414 0 90 16
2021-07-18 12:16:24 GMT 51.475811 -0.473730 0 90 16
2021-07-18 12:16:22 GMT 51.475811 -0.473900 0 90 17
2021-07-18 12:16:21 GMT 51.475811 -0.474082 0 90 17
2021-07-18 12:16:19 GMT 51.475811 -0.474379 0 90 18
2021-07-18 12:16:18 GMT 51.475811 -0.474510 0 90 18
2021-07-18 12:16:17 GMT 51.475811 -0.474639 0 90 18
2021-07-18 12:16:13 GMT 51.475800 -0.475121 0 90 19
2021-07-18 12:16:12 GMT 51.475800 -0.475197 0 90 19
2021-07-18 12:16:11 GMT 51.475800 -0.475426 0 90 19
2021-07-18 12:16:10 GMT 51.475800 -0.475616 0 90 19
2021-07-18 12:16:00 GMT 51.475800 -0.476933 0 90 18
2021-07-18 12:15:58 GMT 51.475800 -0.477200 0 90 17
2021-07-18 12:15:56 GMT 51.475800 -0.477460 0 90 17
2021-07-18 12:15:50 GMT 51.475800 -0.478077 0 90 15
2021-07-18 12:15:47 GMT 51.475800 -0.478369 0 90 15
2021-07-18 12:15:45 GMT 51.475788 -0.478592 0 90 14
2021-07-18 12:15:44 GMT 51.475788 -0.478703 0 90 14
2021-07-18 12:15:42 GMT 51.475788 -0.478889 0 90 13
2021-07-18 12:15:41 GMT 51.475788 -0.479000 0 90 13
2021-07-18 12:15:39 GMT 51.475788 -0.479202 0 90 12
2021-07-18 12:15:36 GMT 51.475788 -0.479450 0 90 11
2021-07-18 12:15:34 GMT 51.475788 -0.479575 0 90 11
2021-07-18 12:15:32 GMT 51.475788 -0.479774 0 90 10
2021-07-18 12:15:30 GMT 51.475788 -0.479910 0 90 10
2021-07-18 12:15:28 GMT 51.475788 -0.480156 0 90 9
2021-07-18 12:15:23 GMT 51.475788 -0.480355 0 90 8
2021-07-18 12:15:21 GMT 51.475788 -0.480466 0 90 7
2021-07-18 12:15:19 GMT 51.475788 -0.480537 0 90 6
2021-07-18 12:15:18 GMT 51.475788 -0.480633 0 90 6
2021-07-18 12:15:16 GMT 51.475788 -0.480690 0 90 5
2021-07-18 12:15:15 GMT 51.475788 -0.480728 0 90 5
2021-07-18 12:15:14 GMT 51.475788 -0.480804 0 90 5
2021-07-18 12:15:12 GMT 51.475788 -0.480843 0 90 5
2021-07-18 12:15:10 GMT 51.475788 -0.480900 0 90 6
2021-07-18 12:15:09 GMT 51.475788 -0.480949 0 90 6
2021-07-18 12:15:07 GMT 51.475788 -0.481052 0 90 6
2021-07-18 12:15:06 GMT 51.475788 -0.481071 0 90 6
2021-07-18 12:15:03 GMT 51.475788 -0.481153 0 90 6
2021-07-18 12:15:02 GMT 51.475788 -0.481205 0 90 6
2021-07-18 12:14:59 GMT 51.475788 -0.481320 0 90 7
2021-07-18 12:14:58 GMT 51.475788 -0.481376 0 90 7
2021-07-18 12:14:55 GMT 51.475788 -0.481548 0 90 7
2021-07-18 12:14:44 GMT 51.475788 -0.482273 0 90 14
2021-07-18 12:14:41 GMT 51.475777 -0.482578 0 90 14
2021-07-18 12:14:38 GMT 51.475777 -0.482903 0 90 13
2021-07-18 12:14:34 GMT 51.475777 -0.483265 0 90 12
2021-07-18 12:14:25 GMT 51.475777 -0.483913 0 87 9
2021-07-18 12:14:21 GMT 51.475777 -0.484159 0 78 9
2021-07-18 12:14:20 GMT 51.475777 -0.484252 0 73 9
2021-07-18 12:14:18 GMT 51.475765 -0.484371 0 61 9
2021-07-18 12:14:16 GMT 51.475708 -0.484586 0 42 10
2021-07-18 12:14:14 GMT 51.475697 -0.484638 0 36 10
2021-07-18 12:14:12 GMT 51.475636 -0.484734 0 28 9
2021-07-18 12:14:10 GMT 51.475567 -0.484810 0 16 9
2021-07-18 12:14:08 GMT 51.475456 -0.484883 0 5 10
2021-07-18 12:14:06 GMT 51.475391 -0.484905 0 2 10
2021-07-18 12:14:04 GMT 51.475353 -0.484920 0 0 12
2021-07-18 12:14:01 GMT 51.475197 -0.484924 0 0 13
2021-07-18 12:13:58 GMT 51.475021 -0.484924 0 0 13
2021-07-18 12:13:57 GMT 51.474964 -0.484920 0 0 13
2021-07-18 12:13:55 GMT 51.474880 -0.484905 0 0 13
2021-07-18 12:13:54 GMT 51.474777 -0.484905 0 0 13
2021-07-18 12:13:52 GMT 51.474682 -0.484905 0 0 12
2021-07-18 12:13:51 GMT 51.474609 -0.484902 0 0 12
2021-07-18 12:13:50 GMT 51.474564 -0.484920 0 0 11
2021-07-18 12:13:48 GMT 51.474449 -0.484905 0 0 11
2021-07-18 12:13:47 GMT 51.474426 -0.484905 0 0 11
2021-07-18 12:13:46 GMT 51.474358 -0.484905 0 0 11
2021-07-18 12:13:43 GMT 51.474220 -0.484902 0 0 10
2021-07-18 12:13:38 GMT 51.474014 -0.484902 0 0 8
2021-07-18 12:13:36 GMT 51.473949 -0.484905 0 0 8
2021-07-18 12:13:34 GMT 51.473877 -0.484920 0 0 7
2021-07-18 12:13:31 GMT 51.473785 -0.484905 0 0 6
2021-07-18 12:13:30 GMT 51.473763 -0.484924 0 0 6
2021-07-18 12:13:29 GMT 51.473740 -0.484920 0 0 6
2021-07-18 12:13:27 GMT 51.473682 -0.484920 0 0 5
2021-07-18 12:13:25 GMT 51.473637 -0.484905 0 0 4
2021-07-18 12:13:24 GMT 51.473637 -0.484920 0 0 4
2021-07-18 12:13:23 GMT 51.473614 -0.484920 0 0 4
2021-07-18 12:13:17 GMT 51.473534 -0.484920 0 357 0
2021-07-18 12:13:12 GMT 51.473495 -0.484905 0 357 0
2021-07-18 12:13:01 GMT 51.473484 -0.484905 0 357 0
2021-07-18 12:12:52 GMT 51.473473 -0.484905 0 357 0
2021-07-18 12:12:32 GMT 51.473465 -0.484920 0 357 0
2021-07-18 12:12:16 GMT 51.473473 -0.484924 0 357 0
2021-07-18 12:12:11 GMT 51.473473 -0.484924 0 357 0
2021-07-18 12:12:01 GMT 51.473461 -0.484924 0 357 0
2021-07-18 12:11:56 GMT 51.473465 -0.484920 0 357 0
2021-07-18 12:11:52 GMT 51.473454 -0.484939 0 357 0
2021-07-18 12:11:47 GMT 51.473454 -0.484939 0 357 0
2021-07-18 12:11:36 GMT 51.473465 -0.484939 0 357 0
2021-07-18 12:11:26 GMT 51.473473 -0.484943 0 357 0
2021-07-18 12:11:12 GMT 51.473488 -0.484920 0 357 0
2021-07-18 12:11:06 GMT 51.473495 -0.484924 0 357 0
2021-07-18 12:11:01 GMT 51.473495 -0.484924 0 357 0
2021-07-18 12:10:56 GMT 51.473495 -0.484924 0 357 0
2021-07-18 12:10:51 GMT 51.473495 -0.484924 0 357 0
2021-07-18 12:10:46 GMT 51.473511 -0.484939 0 357 0
2021-07-18 12:10:41 GMT 51.473507 -0.484924 0 357 0
2021-07-18 12:10:30 GMT 51.473511 -0.484920 0 357 0
2021-07-18 12:10:21 GMT 51.473534 -0.484902 0 357 0
2021-07-18 12:10:16 GMT 51.473557 -0.484902 0 357 0
2021-07-18 12:10:11 GMT 51.473568 -0.484883 0 357 0
2021-07-18 12:10:06 GMT 51.473534 -0.484883 0 357 0
2021-07-18 12:10:01 GMT 51.473507 -0.484905 0 357 0
2021-07-18 12:09:56 GMT 51.473495 -0.484905 0 357 0
2021-07-18 12:09:55 GMT 51.473499 -0.484902 0 357 0
2021-07-18 12:09:53 GMT 51.473495 -0.484905 0 357 0
2021-07-18 12:09:50 GMT 51.473499 -0.484902 0 357 0
2021-07-18 12:09:49 GMT 51.473495 -0.484905 0 357 0
2021-07-18 12:09:48 GMT 51.473499 -0.484902 0 357 0
2021-07-18 12:09:46 GMT 51.473499 -0.484902 0 357 0
2021-07-18 12:09:44 GMT 51.473488 -0.484902 0 357 0
2021-07-18 12:09:43 GMT 51.473495 -0.484905 0 357 0
2021-07-18 12:09:42 GMT 51.473495 -0.484886 0 357 0
2021-07-18 12:09:41 GMT 51.473488 -0.484902 0 357 0
2021-07-18 12:09:38 GMT 51.473495 -0.484886 0 357 0
2021-07-18 12:09:36 GMT 51.473499 -0.484902 0 357 2
2021-07-18 12:09:32 GMT 51.473518 -0.484905 0 351 3
2021-07-18 12:09:31 GMT 51.473530 -0.484924 0 348 3
2021-07-18 12:09:30 GMT 51.473545 -0.484976 0 340 3
2021-07-18 12:09:28 GMT 51.473545 -0.484976 0 337 3
2021-07-18 12:09:25 GMT 51.473553 -0.485020 0 331 3
2021-07-18 12:09:22 GMT 51.473564 -0.485039 0 326 3
2021-07-18 12:09:21 GMT 51.473579 -0.485050 0 326 3
2021-07-18 12:09:18 GMT 51.473602 -0.485106 0 320 3
2021-07-18 12:09:16 GMT 51.473614 -0.485143 0 317 3
2021-07-18 12:09:15 GMT 51.473614 -0.485161 0 315 3
2021-07-18 12:09:11 GMT 51.473648 -0.485210 0 309 3
2021-07-18 12:09:09 GMT 51.473660 -0.485254 0 306 3
2021-07-18 12:09:07 GMT 51.473846 -0.485268 0 300 3
2021-07-18 12:09:05 GMT 51.473637 -0.485306 0 298 3
2021-07-18 12:09:02 GMT 51.473625 -0.485366 0 286 3
2021-07-18 12:09:00 GMT 51.473614 -0.485403 0 284 3
2021-07-18 12:08:58 GMT 51.473614 -0.485439 0 281 3
2021-07-18 12:08:57 GMT 51.473614 -0.485458 0 278 3
2021-07-18 12:08:56 GMT 51.473614 -0.485477 0 275 3
2021-07-18 12:08:55 GMT 51.473602 -0.485477 0 275 3
2021-07-18 12:08:54 GMT 51.473602 -0.485497 0 272 3
2021-07-18 12:08:52 GMT 51.473591 -0.485535 0 272 3
2021-07-18 12:08:49 GMT 51.473576 -0.485592 0 270 3
2021-07-18 12:08:47 GMT 51.473579 -0.485607 0 270 3
2021-07-18 12:08:46 GMT 51.473576 -0.485630 0 270 3
2021-07-18 12:08:44 GMT 51.473568 -0.485681 0 270 3
2021-07-18 12:08:42 GMT 51.473568 -0.485718 0 270 3
2021-07-18 12:08:40 GMT 51.473568 -0.485737 0 270 3
2021-07-18 12:08:38 GMT 51.473564 -0.485764 0 270 3
2021-07-18 12:08:37 GMT 51.473568 -0.485792 0 270 3
2021-07-18 12:08:35 GMT 51.473579 -0.485830 0 270 3
2021-07-18 12:08:33 GMT 51.473602 -0.485867 0 270 3
2021-07-18 12:08:30 GMT 51.473602 -0.485897 0 270 3
2021-07-18 12:08:29 GMT 51.473602 -0.485916 0 270 3
2021-07-18 12:08:27 GMT 51.473602 -0.485941 0 270 3
2021-07-18 12:08:26 GMT 51.473602 -0.485959 0 270 3
2021-07-18 12:08:25 GMT 51.473602 -0.485992 0 270 3
2021-07-18 12:08:23 GMT 51.473602 -0.486050 0 270 2
2021-07-18 12:08:21 GMT 51.473602 -0.486050 0 270 2
2021-07-18 12:08:19 GMT 51.473602 -0.486071 0 270 2
2021-07-18 12:08:18 GMT 51.473602 -0.486088 0 270 2
2021-07-18 12:08:16 GMT 51.473602 -0.486107 0 270 0
2021-07-18 12:08:12 GMT 51.473602 -0.486145 0 270 0
2021-07-18 12:08:07 GMT 51.473614 -0.486164 0 270 0
2021-07-18 12:08:02 GMT 51.473614 -0.486182 0 270 0
2021-07-18 12:07:57 GMT 51.473614 -0.486202 0 270 0
2021-07-18 12:07:52 GMT 51.473625 -0.486221 0 270 0
2021-07-18 12:07:47 GMT 51.473625 -0.486221 0 270 0
2021-07-18 12:07:42 GMT 51.473637 -0.486221 0 270 0
2021-07-18 12:07:37 GMT 51.473637 -0.486219 0 270 0
2021-07-18 12:07:27 GMT 51.473637 -0.486201 0 270 0
2021-07-18 12:07:21 GMT 51.473648 -0.486183 0 270 0
2021-07-18 12:07:15 GMT 51.473648 -0.486183 0 270 0
2021-07-18 12:07:14 GMT 51.473648 -0.486182 0 270 0

Making use of Plane Finder data

You are free to use the raw flight data, aircraft information and images provided in this report for your own purposes provided the data is correctly attributed to Plane Finder. We ask that you please credit Plane Finder and link to planefinder.net in close proximity to the content.

Optionally one of the following logos (no smaller then 150x24px) can be used and must link to planefinder.net

Embedding the Plane Finder map

You are welcome to embed the Plane Finder playback map on your website to offer visitors a more interactive experience. We suggest using the following HTML code:

<iframe src="//planefinder.net/data/report/BA1484-G-EUYS-7700-squawk-2021-07-18/map" width="800" height="600" seamless="seamless"></iframe>

Where our data comes from

Plane Finder has a global network of data feeds and antenna radars that receive data broadcast directly from aircraft. The primary technologies used are ADS-B and MLAT. We also show feeds from the FAA and a FLARM glider feed.

Click here to find out more about the Plane Finder network.

How we collect our data